<?xml version="1.0" encoding="UTF-8" standalone="no" ?>
<gpx xmlns="http://www.topografix.com/GPX/1/1" xmlns:xsi="http://www.w3.org/2001/XMLSchema-instance" xsi:schemaLocation="http://www.topografix.com/GPX/1/1 http://www.topografix.com/GPX/1/1/gpx.xsd" version="1.1" creator="VisuGPX - https://www.visugpx.com">
  <metadata>
    <name>Rando Fontainebleau 77</name>
    <desc><![CDATA[Que de la forêt, ..... mais pratiquement que du sable aussi.
Trés bon balisage.]]></desc>
  </metadata>
  <trk>
    <name><![CDATA[ACTIVE LOG]]></name>
    <trkseg>
      <trkpt lat="48.40411" lon="2.68259">
        <ele>74.6395264</ele>
        <time>2012-03-25T06:39:41Z</time>
      </trkpt>
      <trkpt lat="48.40412" lon="2.68258">
        <ele>74.6395264</ele>
        <time>2012-03-25T06:39:56Z</time>
      </trkpt>
      <trkpt lat="48.40413" lon="2.68258">
        <ele>75.1202393</ele>
        <time>2012-03-25T06:40:02Z</time>
      </trkpt>
      <trkpt lat="48.40425" lon="2.68261">
        <ele>73.6782227</ele>
        <time>2012-03-25T06:40:12Z</time>
      </trkpt>
      <trkpt lat="48.40426" lon="2.68264">
        <ele>73.6782227</ele>
        <time>2012-03-25T06:40:14Z</time>
      </trkpt>
      <trkpt lat="48.4043" lon="2.68273">
        <ele>73.1976318</ele>
        <time>2012-03-25T06:40:18Z</time>
      </trkpt>
      <trkpt lat="48.40431" lon="2.68279">
        <ele>73.1976318</ele>
        <time>2012-03-25T06:40:20Z</time>
      </trkpt>
      <trkpt lat="48.40453" lon="2.68296">
        <ele>73.6782227</ele>
        <time>2012-03-25T06:40:33Z</time>
      </trkpt>
      <trkpt lat="48.4046" lon="2.68281">
        <ele>73.6782227</ele>
        <time>2012-03-25T06:40:40Z</time>
      </trkpt>
      <trkpt lat="48.4047" lon="2.68211">
        <ele>74.1588135</ele>
        <time>2012-03-25T06:40:56Z</time>
      </trkpt>
      <trkpt lat="48.40482" lon="2.68133">
        <ele>75.1202393</ele>
        <time>2012-03-25T06:41:11Z</time>
      </trkpt>
      <trkpt lat="48.40499" lon="2.68017">
        <ele>75.1202393</ele>
        <time>2012-03-25T06:41:32Z</time>
      </trkpt>
      <trkpt lat="48.40519" lon="2.67873">
        <ele>75.1202393</ele>
        <time>2012-03-25T06:41:57Z</time>
      </trkpt>
      <trkpt lat="48.40532" lon="2.67783">
        <ele>75.1202393</ele>
        <time>2012-03-25T06:42:14Z</time>
      </trkpt>
      <trkpt lat="48.40542" lon="2.67713">
        <ele>74.6395264</ele>
        <time>2012-03-25T06:42:27Z</time>
      </trkpt>
      <trkpt lat="48.40543" lon="2.67701">
        <ele>74.6395264</ele>
        <time>2012-03-25T06:42:29Z</time>
      </trkpt>
      <trkpt lat="48.40535" lon="2.67662">
        <ele>73.6782227</ele>
        <time>2012-03-25T06:42:35Z</time>
      </trkpt>
      <trkpt lat="48.40494" lon="2.67585">
        <ele>72.7169189</ele>
        <time>2012-03-25T06:42:49Z</time>
      </trkpt>
      <trkpt lat="48.40436" lon="2.67477">
        <ele>72.7169189</ele>
        <time>2012-03-25T06:43:09Z</time>
      </trkpt>
      <trkpt lat="48.40381" lon="2.67373">
        <ele>71.2749023</ele>
        <time>2012-03-25T06:43:28Z</time>
      </trkpt>
      <trkpt lat="48.40327" lon="2.67272">
        <ele>72.2362061</ele>
        <time>2012-03-25T06:43:46Z</time>
      </trkpt>
      <trkpt lat="48.40295" lon="2.67215">
        <ele>72.2362061</ele>
        <time>2012-03-25T06:43:56Z</time>
      </trkpt>
      <trkpt lat="48.40261" lon="2.6715">
        <ele>71.2749023</ele>
        <time>2012-03-25T06:44:08Z</time>
      </trkpt>
      <trkpt lat="48.40217" lon="2.67071">
        <ele>72.7169189</ele>
        <time>2012-03-25T06:44:23Z</time>
      </trkpt>
      <trkpt lat="48.40157" lon="2.6696">
        <ele>72.7169189</ele>
        <time>2012-03-25T06:44:45Z</time>
      </trkpt>
      <trkpt lat="48.40116" lon="2.66876">
        <ele>72.2362061</ele>
        <time>2012-03-25T06:45:01Z</time>
      </trkpt>
      <trkpt lat="48.40076" lon="2.66801">
        <ele>73.6782227</ele>
        <time>2012-03-25T06:45:15Z</time>
      </trkpt>
      <trkpt lat="48.40048" lon="2.66747">
        <ele>74.6395264</ele>
        <time>2012-03-25T06:45:25Z</time>
      </trkpt>
      <trkpt lat="48.40041" lon="2.66723">
        <ele>75.1202393</ele>
        <time>2012-03-25T06:45:29Z</time>
      </trkpt>
      <trkpt lat="48.40039" lon="2.66696">
        <ele>76.0814209</ele>
        <time>2012-03-25T06:45:33Z</time>
      </trkpt>
      <trkpt lat="48.40037" lon="2.66645">
        <ele>78.4847412</ele>
        <time>2012-03-25T06:45:41Z</time>
      </trkpt>
      <trkpt lat="48.40039" lon="2.66606">
        <ele>83.2913818</ele>
        <time>2012-03-25T06:45:47Z</time>
      </trkpt>
      <trkpt lat="48.40041" lon="2.66549">
        <ele>83.7719727</ele>
        <time>2012-03-25T06:45:57Z</time>
      </trkpt>
      <trkpt lat="48.40044" lon="2.66477">
        <ele>83.2913818</ele>
        <time>2012-03-25T06:46:10Z</time>
      </trkpt>
      <trkpt lat="48.40048" lon="2.66383">
        <ele>83.2913818</ele>
        <time>2012-03-25T06:46:26Z</time>
      </trkpt>
      <trkpt lat="48.40052" lon="2.66321">
        <ele>77.0428467</ele>
        <time>2012-03-25T06:46:36Z</time>
      </trkpt>
      <trkpt lat="48.40053" lon="2.66261">
        <ele>76.0814209</ele>
        <time>2012-03-25T06:46:45Z</time>
      </trkpt>
      <trkpt lat="48.40059" lon="2.66214">
        <ele>76.0814209</ele>
        <time>2012-03-25T06:46:53Z</time>
      </trkpt>
      <trkpt lat="48.40054" lon="2.66196">
        <ele>75.6008301</ele>
        <time>2012-03-25T06:46:57Z</time>
      </trkpt>
      <trkpt lat="48.40011" lon="2.66171">
        <ele>78.0040283</ele>
        <time>2012-03-25T06:47:10Z</time>
      </trkpt>
      <trkpt lat="48.39971" lon="2.66155">
        <ele>83.7719727</ele>
        <time>2012-03-25T06:47:28Z</time>
      </trkpt>
      <trkpt lat="48.39946" lon="2.6615">
        <ele>86.6560059</ele>
        <time>2012-03-25T06:47:40Z</time>
      </trkpt>
      <trkpt lat="48.39929" lon="2.66157">
        <ele>88.0980225</ele>
        <time>2012-03-25T06:47:49Z</time>
      </trkpt>
      <trkpt lat="48.39924" lon="2.66163">
        <ele>89.0593262</ele>
        <time>2012-03-25T06:47:53Z</time>
      </trkpt>
      <trkpt lat="48.39902" lon="2.66175">
        <ele>92.904541</ele>
        <time>2012-03-25T06:48:10Z</time>
      </trkpt>
      <trkpt lat="48.39901" lon="2.66176">
        <ele>93.3851318</ele>
        <time>2012-03-25T06:48:12Z</time>
      </trkpt>
      <trkpt lat="48.39883" lon="2.6617">
        <ele>95.7884521</ele>
        <time>2012-03-25T06:48:28Z</time>
      </trkpt>
      <trkpt lat="48.39878" lon="2.66166">
        <ele>95.7884521</ele>
        <time>2012-03-25T06:48:32Z</time>
      </trkpt>
      <trkpt lat="48.39853" lon="2.6616">
        <ele>99.1530762</ele>
        <time>2012-03-25T06:48:50Z</time>
      </trkpt>
      <trkpt lat="48.39816" lon="2.66157">
        <ele>91.9432373</ele>
        <time>2012-03-25T06:49:02Z</time>
      </trkpt>
      <trkpt lat="48.39748" lon="2.66147">
        <ele>80.4074707</ele>
        <time>2012-03-25T06:49:14Z</time>
      </trkpt>
      <trkpt lat="48.39728" lon="2.66139">
        <ele>78.0040283</ele>
        <time>2012-03-25T06:49:17Z</time>
      </trkpt>
      <trkpt lat="48.39686" lon="2.66099">
        <ele>76.0814209</ele>
        <time>2012-03-25T06:49:25Z</time>
      </trkpt>
      <trkpt lat="48.39654" lon="2.66001">
        <ele>75.6008301</ele>
        <time>2012-03-25T06:49:37Z</time>
      </trkpt>
      <trkpt lat="48.39636" lon="2.65938">
        <ele>74.6395264</ele>
        <time>2012-03-25T06:49:46Z</time>
      </trkpt>
      <trkpt lat="48.39644" lon="2.65891">
        <ele>73.6782227</ele>
        <time>2012-03-25T06:49:53Z</time>
      </trkpt>
      <trkpt lat="48.39653" lon="2.65855">
        <ele>71.7554932</ele>
        <time>2012-03-25T06:49:58Z</time>
      </trkpt>
      <trkpt lat="48.39658" lon="2.65818">
        <ele>72.2362061</ele>
        <time>2012-03-25T06:50:03Z</time>
      </trkpt>
      <trkpt lat="48.39673" lon="2.65755">
        <ele>77.5234375</ele>
        <time>2012-03-25T06:50:13Z</time>
      </trkpt>
      <trkpt lat="48.3969" lon="2.6567">
        <ele>76.0814209</ele>
        <time>2012-03-25T06:50:25Z</time>
      </trkpt>
      <trkpt lat="48.39692" lon="2.65644">
        <ele>76.0814209</ele>
        <time>2012-03-25T06:50:28Z</time>
      </trkpt>
      <trkpt lat="48.39698" lon="2.65613">
        <ele>76.5621338</ele>
        <time>2012-03-25T06:50:32Z</time>
      </trkpt>
      <trkpt lat="48.3971" lon="2.65529">
        <ele>78.9654541</ele>
        <time>2012-03-25T06:50:44Z</time>
      </trkpt>
      <trkpt lat="48.39721" lon="2.6545">
        <ele>76.5621338</ele>
        <time>2012-03-25T06:50:58Z</time>
      </trkpt>
      <trkpt lat="48.39729" lon="2.65401">
        <ele>79.9266357</ele>
        <time>2012-03-25T06:51:06Z</time>
      </trkpt>
      <trkpt lat="48.39737" lon="2.65323">
        <ele>83.2913818</ele>
        <time>2012-03-25T06:51:20Z</time>
      </trkpt>
      <trkpt lat="48.39743" lon="2.65251">
        <ele>85.6945801</ele>
        <time>2012-03-25T06:51:32Z</time>
      </trkpt>
      <trkpt lat="48.39747" lon="2.65223">
        <ele>85.2139893</ele>
        <time>2012-03-25T06:51:36Z</time>
      </trkpt>
      <trkpt lat="48.39756" lon="2.65145">
        <ele>90.9819336</ele>
        <time>2012-03-25T06:51:48Z</time>
      </trkpt>
      <trkpt lat="48.39765" lon="2.65061">
        <ele>91.9432373</ele>
        <time>2012-03-25T06:52:02Z</time>
      </trkpt>
      <trkpt lat="48.39777" lon="2.64945">
        <ele>90.5013428</ele>
        <time>2012-03-25T06:52:21Z</time>
      </trkpt>
      <trkpt lat="48.39779" lon="2.64927">
        <ele>89.539917</ele>
        <time>2012-03-25T06:52:24Z</time>
      </trkpt>
      <trkpt lat="48.39786" lon="2.64848">
        <ele>87.6171875</ele>
        <time>2012-03-25T06:52:37Z</time>
      </trkpt>
      <trkpt lat="48.39794" lon="2.64782">
        <ele>92.4239502</ele>
        <time>2012-03-25T06:52:50Z</time>
      </trkpt>
      <trkpt lat="48.39793" lon="2.64764">
        <ele>92.904541</ele>
        <time>2012-03-25T06:52:54Z</time>
      </trkpt>
      <trkpt lat="48.39789" lon="2.64725">
        <ele>91.4625244</ele>
        <time>2012-03-25T06:53:01Z</time>
      </trkpt>
      <trkpt lat="48.39775" lon="2.64671">
        <ele>86.6560059</ele>
        <time>2012-03-25T06:53:09Z</time>
      </trkpt>
      <trkpt lat="48.39772" lon="2.64576">
        <ele>89.0593262</ele>
        <time>2012-03-25T06:53:22Z</time>
      </trkpt>
      <trkpt lat="48.39771" lon="2.64479">
        <ele>87.6171875</ele>
        <time>2012-03-25T06:53:36Z</time>
      </trkpt>
      <trkpt lat="48.39772" lon="2.64397">
        <ele>89.539917</ele>
        <time>2012-03-25T06:53:48Z</time>
      </trkpt>
      <trkpt lat="48.39771" lon="2.6435">
        <ele>89.0593262</ele>
        <time>2012-03-25T06:53:56Z</time>
      </trkpt>
      <trkpt lat="48.39771" lon="2.64321">
        <ele>89.539917</ele>
        <time>2012-03-25T06:54:00Z</time>
      </trkpt>
      <trkpt lat="48.39785" lon="2.64246">
        <ele>89.539917</ele>
        <time>2012-03-25T06:54:12Z</time>
      </trkpt>
      <trkpt lat="48.39793" lon="2.64163">
        <ele>93.3851318</ele>
        <time>2012-03-25T06:54:26Z</time>
      </trkpt>
      <trkpt lat="48.39798" lon="2.6412">
        <ele>94.3465576</ele>
        <time>2012-03-25T06:54:33Z</time>
      </trkpt>
      <trkpt lat="48.39801" lon="2.64091">
        <ele>92.904541</ele>
        <time>2012-03-25T06:54:38Z</time>
      </trkpt>
      <trkpt lat="48.39811" lon="2.63997">
        <ele>92.4239502</ele>
        <time>2012-03-25T06:54:54Z</time>
      </trkpt>
      <trkpt lat="48.39818" lon="2.63929">
        <ele>90.9819336</ele>
        <time>2012-03-25T06:55:08Z</time>
      </trkpt>
      <trkpt lat="48.3982" lon="2.63909">
        <ele>90.9819336</ele>
        <time>2012-03-25T06:55:12Z</time>
      </trkpt>
      <trkpt lat="48.39824" lon="2.6385">
        <ele>92.904541</ele>
        <time>2012-03-25T06:55:24Z</time>
      </trkpt>
      <trkpt lat="48.39825" lon="2.63801">
        <ele>93.3851318</ele>
        <time>2012-03-25T06:55:33Z</time>
      </trkpt>
      <trkpt lat="48.39819" lon="2.63767">
        <ele>95.3077393</ele>
        <time>2012-03-25T06:55:40Z</time>
      </trkpt>
      <trkpt lat="48.39796" lon="2.63717">
        <ele>96.2692871</ele>
        <time>2012-03-25T06:55:53Z</time>
      </trkpt>
      <trkpt lat="48.39774" lon="2.63675">
        <ele>102.0371094</ele>
        <time>2012-03-25T06:56:06Z</time>
      </trkpt>
      <trkpt lat="48.39767" lon="2.63659">
        <ele>102.998291</ele>
        <time>2012-03-25T06:56:12Z</time>
      </trkpt>
      <trkpt lat="48.39755" lon="2.63635">
        <ele>105.8824463</ele>
        <time>2012-03-25T06:56:22Z</time>
      </trkpt>
      <trkpt lat="48.39743" lon="2.63632">
        <ele>109.2469482</ele>
        <time>2012-03-25T06:56:29Z</time>
      </trkpt>
      <trkpt lat="48.3972" lon="2.63648">
        <ele>109.7276611</ele>
        <time>2012-03-25T06:56:42Z</time>
      </trkpt>
      <trkpt lat="48.39703" lon="2.63637">
        <ele>109.7276611</ele>
        <time>2012-03-25T06:56:54Z</time>
      </trkpt>
      <trkpt lat="48.39697" lon="2.63623">
        <ele>110.6888428</ele>
        <time>2012-03-25T06:57:04Z</time>
      </trkpt>
      <trkpt lat="48.39691" lon="2.63591">
        <ele>115.0148926</ele>
        <time>2012-03-25T06:57:19Z</time>
      </trkpt>
      <trkpt lat="48.39682" lon="2.6355">
        <ele>116.4567871</ele>
        <time>2012-03-25T06:57:34Z</time>
      </trkpt>
      <trkpt lat="48.39679" lon="2.6354">
        <ele>118.8601074</ele>
        <time>2012-03-25T06:57:38Z</time>
      </trkpt>
      <trkpt lat="48.39658" lon="2.63535">
        <ele>119.3408203</ele>
        <time>2012-03-25T06:57:49Z</time>
      </trkpt>
      <trkpt lat="48.3963" lon="2.63531">
        <ele>122.7054443</ele>
        <time>2012-03-25T06:58:01Z</time>
      </trkpt>
      <trkpt lat="48.39596" lon="2.6353">
        <ele>124.6280518</ele>
        <time>2012-03-25T06:58:15Z</time>
      </trkpt>
      <trkpt lat="48.3956" lon="2.63527">
        <ele>125.5893555</ele>
        <time>2012-03-25T06:58:28Z</time>
      </trkpt>
      <trkpt lat="48.39524" lon="2.63508">
        <ele>125.5893555</ele>
        <time>2012-03-25T06:58:41Z</time>
      </trkpt>
      <trkpt lat="48.39519" lon="2.63503">
        <ele>125.5893555</ele>
        <time>2012-03-25T06:58:43Z</time>
      </trkpt>
      <trkpt lat="48.39499" lon="2.6343">
        <ele>126.5506592</ele>
        <time>2012-03-25T06:58:58Z</time>
      </trkpt>
      <trkpt lat="48.39483" lon="2.63358">
        <ele>124.1473389</ele>
        <time>2012-03-25T06:59:11Z</time>
      </trkpt>
      <trkpt lat="48.39475" lon="2.63327">
        <ele>123.1861572</ele>
        <time>2012-03-25T06:59:17Z</time>
      </trkpt>
      <trkpt lat="48.39471" lon="2.6331">
        <ele>123.1861572</ele>
        <time>2012-03-25T06:59:20Z</time>
      </trkpt>
      <trkpt lat="48.39448" lon="2.63202">
        <ele>127.0313721</ele>
        <time>2012-03-25T06:59:38Z</time>
      </trkpt>
      <trkpt lat="48.39433" lon="2.63149">
        <ele>126.5506592</ele>
        <time>2012-03-25T06:59:47Z</time>
      </trkpt>
      <trkpt lat="48.39417" lon="2.63133">
        <ele>124.6280518</ele>
        <time>2012-03-25T06:59:52Z</time>
      </trkpt>
      <trkpt lat="48.3938" lon="2.63133">
        <ele>121.7441406</ele>
        <time>2012-03-25T07:00:01Z</time>
      </trkpt>
      <trkpt lat="48.39363" lon="2.63137">
        <ele>121.7441406</ele>
        <time>2012-03-25T07:00:05Z</time>
      </trkpt>
      <trkpt lat="48.3935" lon="2.63143">
        <ele>120.302124</ele>
        <time>2012-03-25T07:00:08Z</time>
      </trkpt>
      <trkpt lat="48.39331" lon="2.63169">
        <ele>118.8601074</ele>
        <time>2012-03-25T07:00:15Z</time>
      </trkpt>
      <trkpt lat="48.39332" lon="2.63186">
        <ele>117.4182129</ele>
        <time>2012-03-25T07:00:18Z</time>
      </trkpt>
      <trkpt lat="48.39326" lon="2.63268">
        <ele>113.572998</ele>
        <time>2012-03-25T07:00:28Z</time>
      </trkpt>
      <trkpt lat="48.39323" lon="2.63316">
        <ele>111.1695557</ele>
        <time>2012-03-25T07:00:35Z</time>
      </trkpt>
      <trkpt lat="48.39321" lon="2.63392">
        <ele>108.2856445</ele>
        <time>2012-03-25T07:00:43Z</time>
      </trkpt>
      <trkpt lat="48.39315" lon="2.63437">
        <ele>106.8436279</ele>
        <time>2012-03-25T07:00:48Z</time>
      </trkpt>
      <trkpt lat="48.39309" lon="2.63472">
        <ele>104.4404297</ele>
        <time>2012-03-25T07:00:52Z</time>
      </trkpt>
      <trkpt lat="48.39298" lon="2.63524">
        <ele>102.998291</ele>
        <time>2012-03-25T07:00:59Z</time>
      </trkpt>
      <trkpt lat="48.39296" lon="2.63553">
        <ele>101.5563965</ele>
        <time>2012-03-25T07:01:03Z</time>
      </trkpt>
      <trkpt lat="48.39302" lon="2.63607">
        <ele>100.114502</ele>
        <time>2012-03-25T07:01:08Z</time>
      </trkpt>
      <trkpt lat="48.39313" lon="2.63651">
        <ele>97.2304688</ele>
        <time>2012-03-25T07:01:12Z</time>
      </trkpt>
      <trkpt lat="48.39315" lon="2.63681">
        <ele>96.2692871</ele>
        <time>2012-03-25T07:01:15Z</time>
      </trkpt>
      <trkpt lat="48.39293" lon="2.63738">
        <ele>94.3465576</ele>
        <time>2012-03-25T07:01:23Z</time>
      </trkpt>
      <trkpt lat="48.39278" lon="2.63756">
        <ele>92.4239502</ele>
        <time>2012-03-25T07:01:26Z</time>
      </trkpt>
      <trkpt lat="48.39265" lon="2.63791">
        <ele>90.5013428</ele>
        <time>2012-03-25T07:01:30Z</time>
      </trkpt>
      <trkpt lat="48.39263" lon="2.63837">
        <ele>88.5787354</ele>
        <time>2012-03-25T07:01:35Z</time>
      </trkpt>
      <trkpt lat="48.3927" lon="2.63885">
        <ele>98.1918945</ele>
        <time>2012-03-25T07:01:41Z</time>
      </trkpt>
      <trkpt lat="48.39269" lon="2.63917">
        <ele>95.7884521</ele>
        <time>2012-03-25T07:01:45Z</time>
      </trkpt>
      <trkpt lat="48.39271" lon="2.63975">
        <ele>91.4625244</ele>
        <time>2012-03-25T07:01:51Z</time>
      </trkpt>
      <trkpt lat="48.39271" lon="2.64002">
        <ele>90.9819336</ele>
        <time>2012-03-25T07:01:54Z</time>
      </trkpt>
      <trkpt lat="48.39266" lon="2.6405">
        <ele>87.6171875</ele>
        <time>2012-03-25T07:02:00Z</time>
      </trkpt>
      <trkpt lat="48.39264" lon="2.64082">
        <ele>86.6560059</ele>
        <time>2012-03-25T07:02:04Z</time>
      </trkpt>
      <trkpt lat="48.39266" lon="2.64146">
        <ele>85.2139893</ele>
        <time>2012-03-25T07:02:11Z</time>
      </trkpt>
      <trkpt lat="48.39269" lon="2.64178">
        <ele>84.7333984</ele>
        <time>2012-03-25T07:02:15Z</time>
      </trkpt>
      <trkpt lat="48.3927" lon="2.64214">
        <ele>83.7719727</ele>
        <time>2012-03-25T07:02:20Z</time>
      </trkpt>
      <trkpt lat="48.39265" lon="2.64253">
        <ele>83.2913818</ele>
        <time>2012-03-25T07:02:25Z</time>
      </trkpt>
      <trkpt lat="48.3926" lon="2.64299">
        <ele>81.8493652</ele>
        <time>2012-03-25T07:02:31Z</time>
      </trkpt>
      <trkpt lat="48.39257" lon="2.64343">
        <ele>79.9266357</ele>
        <time>2012-03-25T07:02:37Z</time>
      </trkpt>
      <trkpt lat="48.39255" lon="2.64351">
        <ele>80.4074707</ele>
        <time>2012-03-25T07:02:38Z</time>
      </trkpt>
      <trkpt lat="48.39236" lon="2.64438">
        <ele>80.8881836</ele>
        <time>2012-03-25T07:02:51Z</time>
      </trkpt>
      <trkpt lat="48.3923" lon="2.64477">
        <ele>79.4460449</ele>
        <time>2012-03-25T07:02:58Z</time>
      </trkpt>
      <trkpt lat="48.39228" lon="2.64517">
        <ele>79.4460449</ele>
        <time>2012-03-25T07:03:04Z</time>
      </trkpt>
      <trkpt lat="48.39222" lon="2.64567">
        <ele>77.5234375</ele>
        <time>2012-03-25T07:03:11Z</time>
      </trkpt>
      <trkpt lat="48.39215" lon="2.64632">
        <ele>80.4074707</ele>
        <time>2012-03-25T07:03:20Z</time>
      </trkpt>
      <trkpt lat="48.39201" lon="2.6471">
        <ele>78.0040283</ele>
        <time>2012-03-25T07:03:31Z</time>
      </trkpt>
      <trkpt lat="48.39192" lon="2.64777">
        <ele>76.0814209</ele>
        <time>2012-03-25T07:03:40Z</time>
      </trkpt>
      <trkpt lat="48.39187" lon="2.64805">
        <ele>75.1202393</ele>
        <time>2012-03-25T07:03:44Z</time>
      </trkpt>
      <trkpt lat="48.39176" lon="2.64919">
        <ele>75.1202393</ele>
        <time>2012-03-25T07:04:00Z</time>
      </trkpt>
      <trkpt lat="48.39165" lon="2.65032">
        <ele>72.2362061</ele>
        <time>2012-03-25T07:04:15Z</time>
      </trkpt>
      <trkpt lat="48.39163" lon="2.65048">
        <ele>72.2362061</ele>
        <time>2012-03-25T07:04:17Z</time>
      </trkpt>
      <trkpt lat="48.3915" lon="2.65066">
        <ele>73.1976318</ele>
        <time>2012-03-25T07:04:23Z</time>
      </trkpt>
      <trkpt lat="48.39092" lon="2.65059">
        <ele>76.0814209</ele>
        <time>2012-03-25T07:04:42Z</time>
      </trkpt>
      <trkpt lat="48.39068" lon="2.65056">
        <ele>78.0040283</ele>
        <time>2012-03-25T07:04:52Z</time>
      </trkpt>
      <trkpt lat="48.39048" lon="2.65046">
        <ele>81.8493652</ele>
        <time>2012-03-25T07:05:03Z</time>
      </trkpt>
      <trkpt lat="48.39032" lon="2.65002">
        <ele>86.6560059</ele>
        <time>2012-03-25T07:05:16Z</time>
      </trkpt>
      <trkpt lat="48.39006" lon="2.64956">
        <ele>89.0593262</ele>
        <time>2012-03-25T07:05:29Z</time>
      </trkpt>
      <trkpt lat="48.38965" lon="2.64935">
        <ele>91.4625244</ele>
        <time>2012-03-25T07:05:45Z</time>
      </trkpt>
      <trkpt lat="48.38917" lon="2.64917">
        <ele>88.0980225</ele>
        <time>2012-03-25T07:05:59Z</time>
      </trkpt>
      <trkpt lat="48.38912" lon="2.64915">
        <ele>87.1365967</ele>
        <time>2012-03-25T07:06:00Z</time>
      </trkpt>
      <trkpt lat="48.38883" lon="2.64915">
        <ele>85.6945801</ele>
        <time>2012-03-25T07:06:05Z</time>
      </trkpt>
      <trkpt lat="48.38859" lon="2.64904">
        <ele>83.7719727</ele>
        <time>2012-03-25T07:06:10Z</time>
      </trkpt>
      <trkpt lat="48.38791" lon="2.64847">
        <ele>83.2913818</ele>
        <time>2012-03-25T07:06:26Z</time>
      </trkpt>
      <trkpt lat="48.38783" lon="2.64841">
        <ele>83.2913818</ele>
        <time>2012-03-25T07:06:28Z</time>
      </trkpt>
      <trkpt lat="48.38751" lon="2.64816">
        <ele>86.6560059</ele>
        <time>2012-03-25T07:06:36Z</time>
      </trkpt>
      <trkpt lat="48.38673" lon="2.64742">
        <ele>88.5787354</ele>
        <time>2012-03-25T07:06:55Z</time>
      </trkpt>
      <trkpt lat="48.38657" lon="2.64713">
        <ele>90.5013428</ele>
        <time>2012-03-25T07:07:00Z</time>
      </trkpt>
      <trkpt lat="48.38651" lon="2.64647">
        <ele>93.3851318</ele>
        <time>2012-03-25T07:07:10Z</time>
      </trkpt>
      <trkpt lat="48.38643" lon="2.64576">
        <ele>93.3851318</ele>
        <time>2012-03-25T07:07:21Z</time>
      </trkpt>
      <trkpt lat="48.3864" lon="2.64557">
        <ele>94.3465576</ele>
        <time>2012-03-25T07:07:24Z</time>
      </trkpt>
      <trkpt lat="48.38629" lon="2.64439">
        <ele>96.2692871</ele>
        <time>2012-03-25T07:07:43Z</time>
      </trkpt>
      <trkpt lat="48.38616" lon="2.64329">
        <ele>96.7498779</ele>
        <time>2012-03-25T07:08:02Z</time>
      </trkpt>
      <trkpt lat="48.38607" lon="2.6424">
        <ele>98.1918945</ele>
        <time>2012-03-25T07:08:18Z</time>
      </trkpt>
      <trkpt lat="48.38598" lon="2.64153">
        <ele>96.7498779</ele>
        <time>2012-03-25T07:08:33Z</time>
      </trkpt>
      <trkpt lat="48.38595" lon="2.64062">
        <ele>97.7111816</ele>
        <time>2012-03-25T07:08:51Z</time>
      </trkpt>
      <trkpt lat="48.38592" lon="2.64003">
        <ele>100.114502</ele>
        <time>2012-03-25T07:09:05Z</time>
      </trkpt>
      <trkpt lat="48.38589" lon="2.63969">
        <ele>104.4404297</ele>
        <time>2012-03-25T07:09:14Z</time>
      </trkpt>
      <trkpt lat="48.38588" lon="2.63966">
        <ele>104.9210205</ele>
        <time>2012-03-25T07:09:15Z</time>
      </trkpt>
      <trkpt lat="48.38587" lon="2.63918">
        <ele>109.2469482</ele>
        <time>2012-03-25T07:09:32Z</time>
      </trkpt>
      <trkpt lat="48.38585" lon="2.63872">
        <ele>113.0922852</ele>
        <time>2012-03-25T07:09:48Z</time>
      </trkpt>
      <trkpt lat="48.38582" lon="2.63816">
        <ele>118.3793945</ele>
        <time>2012-03-25T07:10:05Z</time>
      </trkpt>
      <trkpt lat="48.38577" lon="2.63759">
        <ele>117.8988037</ele>
        <time>2012-03-25T07:10:20Z</time>
      </trkpt>
      <trkpt lat="48.38573" lon="2.63665">
        <ele>115.0148926</ele>
        <time>2012-03-25T07:10:40Z</time>
      </trkpt>
      <trkpt lat="48.38571" lon="2.63588">
        <ele>119.3408203</ele>
        <time>2012-03-25T07:10:55Z</time>
      </trkpt>
      <trkpt lat="48.38566" lon="2.63505">
        <ele>119.8214111</ele>
        <time>2012-03-25T07:11:09Z</time>
      </trkpt>
      <trkpt lat="48.38565" lon="2.63493">
        <ele>119.3408203</ele>
        <time>2012-03-25T07:11:11Z</time>
      </trkpt>
      <trkpt lat="48.38561" lon="2.63379">
        <ele>118.8601074</ele>
        <time>2012-03-25T07:11:29Z</time>
      </trkpt>
      <trkpt lat="48.38561" lon="2.63373">
        <ele>119.3408203</ele>
        <time>2012-03-25T07:11:30Z</time>
      </trkpt>
      <trkpt lat="48.38559" lon="2.63354">
        <ele>119.8214111</ele>
        <time>2012-03-25T07:11:33Z</time>
      </trkpt>
      <trkpt lat="48.38551" lon="2.63197">
        <ele>116.9375</ele>
        <time>2012-03-25T07:11:55Z</time>
      </trkpt>
      <trkpt lat="48.38548" lon="2.63111">
        <ele>116.4567871</ele>
        <time>2012-03-25T07:12:08Z</time>
      </trkpt>
      <trkpt lat="48.38539" lon="2.6309">
        <ele>119.3408203</ele>
        <time>2012-03-25T07:12:13Z</time>
      </trkpt>
      <trkpt lat="48.38526" lon="2.63074">
        <ele>122.2247314</ele>
        <time>2012-03-25T07:12:23Z</time>
      </trkpt>
      <trkpt lat="48.38524" lon="2.63061">
        <ele>123.666748</ele>
        <time>2012-03-25T07:12:27Z</time>
      </trkpt>
      <trkpt lat="48.38528" lon="2.63037">
        <ele>123.666748</ele>
        <time>2012-03-25T07:12:32Z</time>
      </trkpt>
      <trkpt lat="48.38526" lon="2.63017">
        <ele>124.1473389</ele>
        <time>2012-03-25T07:12:36Z</time>
      </trkpt>
      <trkpt lat="48.38514" lon="2.62983">
        <ele>124.1473389</ele>
        <time>2012-03-25T07:12:41Z</time>
      </trkpt>
      <trkpt lat="48.38496" lon="2.6293">
        <ele>123.1861572</ele>
        <time>2012-03-25T07:12:51Z</time>
      </trkpt>
      <trkpt lat="48.38471" lon="2.62851">
        <ele>121.2635498</ele>
        <time>2012-03-25T07:13:04Z</time>
      </trkpt>
      <trkpt lat="48.38447" lon="2.62781">
        <ele>118.8601074</ele>
        <time>2012-03-25T07:13:16Z</time>
      </trkpt>
      <trkpt lat="48.38416" lon="2.62687">
        <ele>113.572998</ele>
        <time>2012-03-25T07:13:30Z</time>
      </trkpt>
      <trkpt lat="48.38391" lon="2.6261">
        <ele>112.6115723</ele>
        <time>2012-03-25T07:13:42Z</time>
      </trkpt>
      <trkpt lat="48.38369" lon="2.62545">
        <ele>113.0922852</ele>
        <time>2012-03-25T07:13:52Z</time>
      </trkpt>
      <trkpt lat="48.38344" lon="2.6247">
        <ele>113.572998</ele>
        <time>2012-03-25T07:14:03Z</time>
      </trkpt>
      <trkpt lat="48.38303" lon="2.6235">
        <ele>118.8601074</ele>
        <time>2012-03-25T07:14:20Z</time>
      </trkpt>
      <trkpt lat="48.38257" lon="2.62217">
        <ele>121.2635498</ele>
        <time>2012-03-25T07:14:38Z</time>
      </trkpt>
      <trkpt lat="48.38218" lon="2.62097">
        <ele>120.7828369</ele>
        <time>2012-03-25T07:14:54Z</time>
      </trkpt>
      <trkpt lat="48.38191" lon="2.6202">
        <ele>123.666748</ele>
        <time>2012-03-25T07:15:04Z</time>
      </trkpt>
      <trkpt lat="48.38153" lon="2.61903">
        <ele>120.7828369</ele>
        <time>2012-03-25T07:15:20Z</time>
      </trkpt>
      <trkpt lat="48.38149" lon="2.61842">
        <ele>119.8214111</ele>
        <time>2012-03-25T07:15:28Z</time>
      </trkpt>
      <trkpt lat="48.38149" lon="2.61784">
        <ele>117.4182129</ele>
        <time>2012-03-25T07:15:36Z</time>
      </trkpt>
      <trkpt lat="48.38148" lon="2.61762">
        <ele>117.4182129</ele>
        <time>2012-03-25T07:15:39Z</time>
      </trkpt>
      <trkpt lat="48.38146" lon="2.61719">
        <ele>120.302124</ele>
        <time>2012-03-25T07:15:45Z</time>
      </trkpt>
      <trkpt lat="48.38149" lon="2.61686">
        <ele>116.9375</ele>
        <time>2012-03-25T07:15:50Z</time>
      </trkpt>
      <trkpt lat="48.38144" lon="2.616">
        <ele>116.9375</ele>
        <time>2012-03-25T07:16:01Z</time>
      </trkpt>
      <trkpt lat="48.38141" lon="2.61474">
        <ele>118.3793945</ele>
        <time>2012-03-25T07:16:18Z</time>
      </trkpt>
      <trkpt lat="48.38143" lon="2.61411">
        <ele>119.8214111</ele>
        <time>2012-03-25T07:16:27Z</time>
      </trkpt>
      <trkpt lat="48.38138" lon="2.61289">
        <ele>117.8988037</ele>
        <time>2012-03-25T07:16:45Z</time>
      </trkpt>
      <trkpt lat="48.38137" lon="2.61282">
        <ele>118.3793945</ele>
        <time>2012-03-25T07:16:46Z</time>
      </trkpt>
      <trkpt lat="48.38136" lon="2.61127">
        <ele>117.4182129</ele>
        <time>2012-03-25T07:17:09Z</time>
      </trkpt>
      <trkpt lat="48.38135" lon="2.61114">
        <ele>117.8988037</ele>
        <time>2012-03-25T07:17:11Z</time>
      </trkpt>
      <trkpt lat="48.38123" lon="2.61079">
        <ele>119.3408203</ele>
        <time>2012-03-25T07:17:17Z</time>
      </trkpt>
      <trkpt lat="48.38052" lon="2.60994">
        <ele>121.2635498</ele>
        <time>2012-03-25T07:17:37Z</time>
      </trkpt>
      <trkpt lat="48.37987" lon="2.60914">
        <ele>120.7828369</ele>
        <time>2012-03-25T07:17:55Z</time>
      </trkpt>
      <trkpt lat="48.37945" lon="2.60864">
        <ele>120.302124</ele>
        <time>2012-03-25T07:18:07Z</time>
      </trkpt>
      <trkpt lat="48.37899" lon="2.6081">
        <ele>119.3408203</ele>
        <time>2012-03-25T07:18:20Z</time>
      </trkpt>
      <trkpt lat="48.37888" lon="2.608">
        <ele>119.8214111</ele>
        <time>2012-03-25T07:18:23Z</time>
      </trkpt>
      <trkpt lat="48.37874" lon="2.60784">
        <ele>119.8214111</ele>
        <time>2012-03-25T07:18:27Z</time>
      </trkpt>
      <trkpt lat="48.37821" lon="2.60715">
        <ele>119.8214111</ele>
        <time>2012-03-25T07:18:41Z</time>
      </trkpt>
      <trkpt lat="48.37756" lon="2.60636">
        <ele>119.8214111</ele>
        <time>2012-03-25T07:18:58Z</time>
      </trkpt>
      <trkpt lat="48.37695" lon="2.60564">
        <ele>119.3408203</ele>
        <time>2012-03-25T07:19:13Z</time>
      </trkpt>
      <trkpt lat="48.37643" lon="2.60503">
        <ele>116.9375</ele>
        <time>2012-03-25T07:19:26Z</time>
      </trkpt>
      <trkpt lat="48.37598" lon="2.60448">
        <ele>115.9761963</ele>
        <time>2012-03-25T07:19:37Z</time>
      </trkpt>
      <trkpt lat="48.37546" lon="2.60382">
        <ele>115.9761963</ele>
        <time>2012-03-25T07:19:51Z</time>
      </trkpt>
      <trkpt lat="48.37537" lon="2.60348">
        <ele>115.4956055</ele>
        <time>2012-03-25T07:19:56Z</time>
      </trkpt>
      <trkpt lat="48.37536" lon="2.60209">
        <ele>120.302124</ele>
        <time>2012-03-25T07:20:14Z</time>
      </trkpt>
      <trkpt lat="48.37535" lon="2.60064">
        <ele>117.8988037</ele>
        <time>2012-03-25T07:20:33Z</time>
      </trkpt>
      <trkpt lat="48.37533" lon="2.5991">
        <ele>119.8214111</ele>
        <time>2012-03-25T07:20:53Z</time>
      </trkpt>
      <trkpt lat="48.37533" lon="2.59726">
        <ele>121.7441406</ele>
        <time>2012-03-25T07:21:18Z</time>
      </trkpt>
      <trkpt lat="48.37531" lon="2.59497">
        <ele>120.302124</ele>
        <time>2012-03-25T07:21:46Z</time>
      </trkpt>
      <trkpt lat="48.37555" lon="2.59443">
        <ele>119.3408203</ele>
        <time>2012-03-25T07:21:55Z</time>
      </trkpt>
      <trkpt lat="48.37596" lon="2.5941">
        <ele>119.8214111</ele>
        <time>2012-03-25T07:22:04Z</time>
      </trkpt>
      <trkpt lat="48.37644" lon="2.59374">
        <ele>118.8601074</ele>
        <time>2012-03-25T07:22:14Z</time>
      </trkpt>
      <trkpt lat="48.37706" lon="2.59326">
        <ele>119.3408203</ele>
        <time>2012-03-25T07:22:27Z</time>
      </trkpt>
      <trkpt lat="48.37764" lon="2.59281">
        <ele>118.3793945</ele>
        <time>2012-03-25T07:22:39Z</time>
      </trkpt>
      <trkpt lat="48.37823" lon="2.59231">
        <ele>118.8601074</ele>
        <time>2012-03-25T07:22:51Z</time>
      </trkpt>
      <trkpt lat="48.37894" lon="2.59174">
        <ele>121.2635498</ele>
        <time>2012-03-25T07:23:05Z</time>
      </trkpt>
      <trkpt lat="48.37934" lon="2.59142">
        <ele>119.8214111</ele>
        <time>2012-03-25T07:23:13Z</time>
      </trkpt>
      <trkpt lat="48.37987" lon="2.59101">
        <ele>119.8214111</ele>
        <time>2012-03-25T07:23:23Z</time>
      </trkpt>
      <trkpt lat="48.37998" lon="2.5911">
        <ele>120.302124</ele>
        <time>2012-03-25T07:23:27Z</time>
      </trkpt>
      <trkpt lat="48.37998" lon="2.59197">
        <ele>118.8601074</ele>
        <time>2012-03-25T07:23:40Z</time>
      </trkpt>
      <trkpt lat="48.37995" lon="2.5929">
        <ele>122.7054443</ele>
        <time>2012-03-25T07:23:56Z</time>
      </trkpt>
      <trkpt lat="48.37996" lon="2.59309">
        <ele>122.7054443</ele>
        <time>2012-03-25T07:23:59Z</time>
      </trkpt>
      <trkpt lat="48.37996" lon="2.59331">
        <ele>123.1861572</ele>
        <time>2012-03-25T07:24:02Z</time>
      </trkpt>
      <trkpt lat="48.37992" lon="2.59449">
        <ele>124.1473389</ele>
        <time>2012-03-25T07:24:18Z</time>
      </trkpt>
      <trkpt lat="48.37988" lon="2.59533">
        <ele>126.0699463</ele>
        <time>2012-03-25T07:24:30Z</time>
      </trkpt>
      <trkpt lat="48.37988" lon="2.59541">
        <ele>125.1087646</ele>
        <time>2012-03-25T07:24:31Z</time>
      </trkpt>
      <trkpt lat="48.37988" lon="2.59563">
        <ele>125.5893555</ele>
        <time>2012-03-25T07:24:34Z</time>
      </trkpt>
      <trkpt lat="48.38004" lon="2.59604">
        <ele>124.1473389</ele>
        <time>2012-03-25T07:24:41Z</time>
      </trkpt>
      <trkpt lat="48.38048" lon="2.5962">
        <ele>124.6280518</ele>
        <time>2012-03-25T07:24:50Z</time>
      </trkpt>
      <trkpt lat="48.38065" lon="2.59619">
        <ele>124.1473389</ele>
        <time>2012-03-25T07:24:54Z</time>
      </trkpt>
      <trkpt lat="48.38081" lon="2.59609">
        <ele>123.666748</ele>
        <time>2012-03-25T07:24:58Z</time>
      </trkpt>
      <trkpt lat="48.38135" lon="2.59532">
        <ele>119.8214111</ele>
        <time>2012-03-25T07:25:15Z</time>
      </trkpt>
      <trkpt lat="48.38145" lon="2.59519">
        <ele>119.8214111</ele>
        <time>2012-03-25T07:25:18Z</time>
      </trkpt>
      <trkpt lat="48.38154" lon="2.59495">
        <ele>119.8214111</ele>
        <time>2012-03-25T07:25:22Z</time>
      </trkpt>
      <trkpt lat="48.38184" lon="2.59363">
        <ele>115.4956055</ele>
        <time>2012-03-25T07:25:42Z</time>
      </trkpt>
      <trkpt lat="48.38206" lon="2.59266">
        <ele>114.0535889</ele>
        <time>2012-03-25T07:25:56Z</time>
      </trkpt>
      <trkpt lat="48.38222" lon="2.59227">
        <ele>114.0535889</ele>
        <time>2012-03-25T07:26:01Z</time>
      </trkpt>
      <trkpt lat="48.38233" lon="2.59189">
        <ele>111.6502686</ele>
        <time>2012-03-25T07:26:05Z</time>
      </trkpt>
      <trkpt lat="48.38237" lon="2.59168">
        <ele>110.6888428</ele>
        <time>2012-03-25T07:26:07Z</time>
      </trkpt>
      <trkpt lat="48.38235" lon="2.59092">
        <ele>106.3630371</ele>
        <time>2012-03-25T07:26:14Z</time>
      </trkpt>
      <trkpt lat="48.3824" lon="2.59018">
        <ele>102.998291</ele>
        <time>2012-03-25T07:26:21Z</time>
      </trkpt>
      <trkpt lat="48.38252" lon="2.58983">
        <ele>102.0371094</ele>
        <time>2012-03-25T07:26:25Z</time>
      </trkpt>
      <trkpt lat="48.38276" lon="2.58941">
        <ele>100.5950928</ele>
        <time>2012-03-25T07:26:30Z</time>
      </trkpt>
      <trkpt lat="48.38295" lon="2.58878">
        <ele>99.1530762</ele>
        <time>2012-03-25T07:26:36Z</time>
      </trkpt>
      <trkpt lat="48.38331" lon="2.58798">
        <ele>96.2692871</ele>
        <time>2012-03-25T07:26:45Z</time>
      </trkpt>
      <trkpt lat="48.38342" lon="2.58774">
        <ele>95.3077393</ele>
        <time>2012-03-25T07:26:48Z</time>
      </trkpt>
      <trkpt lat="48.38372" lon="2.58765">
        <ele>91.9432373</ele>
        <time>2012-03-25T07:26:55Z</time>
      </trkpt>
      <trkpt lat="48.38401" lon="2.5878">
        <ele>91.4625244</ele>
        <time>2012-03-25T07:27:01Z</time>
      </trkpt>
      <trkpt lat="48.38429" lon="2.58776">
        <ele>92.4239502</ele>
        <time>2012-03-25T07:27:07Z</time>
      </trkpt>
      <trkpt lat="48.38474" lon="2.58802">
        <ele>93.8658447</ele>
        <time>2012-03-25T07:27:18Z</time>
      </trkpt>
      <trkpt lat="48.38507" lon="2.58862">
        <ele>94.8271484</ele>
        <time>2012-03-25T07:27:31Z</time>
      </trkpt>
      <trkpt lat="48.38534" lon="2.58915">
        <ele>97.7111816</ele>
        <time>2012-03-25T07:27:45Z</time>
      </trkpt>
      <trkpt lat="48.38547" lon="2.58949">
        <ele>102.0371094</ele>
        <time>2012-03-25T07:27:55Z</time>
      </trkpt>
      <trkpt lat="48.38553" lon="2.58969">
        <ele>103.4790039</ele>
        <time>2012-03-25T07:28:00Z</time>
      </trkpt>
      <trkpt lat="48.38572" lon="2.59021">
        <ele>107.3243408</ele>
        <time>2012-03-25T07:28:12Z</time>
      </trkpt>
      <trkpt lat="48.3859" lon="2.59069">
        <ele>110.208252</ele>
        <time>2012-03-25T07:28:24Z</time>
      </trkpt>
      <trkpt lat="48.38611" lon="2.59112">
        <ele>110.6888428</ele>
        <time>2012-03-25T07:28:35Z</time>
      </trkpt>
      <trkpt lat="48.38642" lon="2.59151">
        <ele>119.8214111</ele>
        <time>2012-03-25T07:28:49Z</time>
      </trkpt>
      <trkpt lat="48.38656" lon="2.59198">
        <ele>112.6115723</ele>
        <time>2012-03-25T07:29:00Z</time>
      </trkpt>
      <trkpt lat="48.38656" lon="2.59206">
        <ele>112.6115723</ele>
        <time>2012-03-25T07:29:02Z</time>
      </trkpt>
      <trkpt lat="48.38641" lon="2.59241">
        <ele>115.4956055</ele>
        <time>2012-03-25T07:29:14Z</time>
      </trkpt>
      <trkpt lat="48.38626" lon="2.59266">
        <ele>117.8988037</ele>
        <time>2012-03-25T07:29:22Z</time>
      </trkpt>
      <trkpt lat="48.38627" lon="2.59325">
        <ele>114.5341797</ele>
        <time>2012-03-25T07:29:38Z</time>
      </trkpt>
      <trkpt lat="48.3864" lon="2.59359">
        <ele>116.9375</ele>
        <time>2012-03-25T07:29:51Z</time>
      </trkpt>
      <trkpt lat="48.3866" lon="2.59415">
        <ele>119.8214111</ele>
        <time>2012-03-25T07:30:11Z</time>
      </trkpt>
      <trkpt lat="48.38669" lon="2.59495">
        <ele>119.8214111</ele>
        <time>2012-03-25T07:30:30Z</time>
      </trkpt>
      <trkpt lat="48.38662" lon="2.59574">
        <ele>120.7828369</ele>
        <time>2012-03-25T07:30:46Z</time>
      </trkpt>
      <trkpt lat="48.38653" lon="2.59665">
        <ele>124.1473389</ele>
        <time>2012-03-25T07:31:02Z</time>
      </trkpt>
      <trkpt lat="48.3865" lon="2.59698">
        <ele>124.1473389</ele>
        <time>2012-03-25T07:31:07Z</time>
      </trkpt>
      <trkpt lat="48.38649" lon="2.59725">
        <ele>124.1473389</ele>
        <time>2012-03-25T07:31:11Z</time>
      </trkpt>
      <trkpt lat="48.38643" lon="2.59802">
        <ele>124.6280518</ele>
        <time>2012-03-25T07:31:23Z</time>
      </trkpt>
      <trkpt lat="48.38643" lon="2.59816">
        <ele>122.7054443</ele>
        <time>2012-03-25T07:31:25Z</time>
      </trkpt>
      <trkpt lat="48.38636" lon="2.59902">
        <ele>121.7441406</ele>
        <time>2012-03-25T07:31:38Z</time>
      </trkpt>
      <trkpt lat="48.38652" lon="2.59921">
        <ele>118.8601074</ele>
        <time>2012-03-25T07:31:45Z</time>
      </trkpt>
      <trkpt lat="48.38656" lon="2.59918">
        <ele>118.3793945</ele>
        <time>2012-03-25T07:31:46Z</time>
      </trkpt>
      <trkpt lat="48.38676" lon="2.599">
        <ele>117.4182129</ele>
        <time>2012-03-25T07:31:52Z</time>
      </trkpt>
      <trkpt lat="48.38691" lon="2.59894">
        <ele>117.4182129</ele>
        <time>2012-03-25T07:31:56Z</time>
      </trkpt>
      <trkpt lat="48.38714" lon="2.59898">
        <ele>118.3793945</ele>
        <time>2012-03-25T07:32:02Z</time>
      </trkpt>
      <trkpt lat="48.38757" lon="2.59896">
        <ele>119.3408203</ele>
        <time>2012-03-25T07:32:16Z</time>
      </trkpt>
      <trkpt lat="48.38774" lon="2.59869">
        <ele>117.8988037</ele>
        <time>2012-03-25T07:32:22Z</time>
      </trkpt>
      <trkpt lat="48.38789" lon="2.59847">
        <ele>117.4182129</ele>
        <time>2012-03-25T07:32:27Z</time>
      </trkpt>
      <trkpt lat="48.38804" lon="2.59808">
        <ele>116.4567871</ele>
        <time>2012-03-25T07:32:34Z</time>
      </trkpt>
      <trkpt lat="48.3882" lon="2.59803">
        <ele>115.4956055</ele>
        <time>2012-03-25T07:32:38Z</time>
      </trkpt>
      <trkpt lat="48.38831" lon="2.59804">
        <ele>115.0148926</ele>
        <time>2012-03-25T07:32:40Z</time>
      </trkpt>
      <trkpt lat="48.38841" lon="2.59804">
        <ele>115.0148926</ele>
        <time>2012-03-25T07:32:42Z</time>
      </trkpt>
      <trkpt lat="48.3886" lon="2.59795">
        <ele>115.4956055</ele>
        <time>2012-03-25T07:32:46Z</time>
      </trkpt>
      <trkpt lat="48.38872" lon="2.59785">
        <ele>115.4956055</ele>
        <time>2012-03-25T07:32:49Z</time>
      </trkpt>
      <trkpt lat="48.38891" lon="2.59785">
        <ele>115.4956055</ele>
        <time>2012-03-25T07:32:53Z</time>
      </trkpt>
      <trkpt lat="48.38905" lon="2.59788">
        <ele>115.9761963</ele>
        <time>2012-03-25T07:32:56Z</time>
      </trkpt>
      <trkpt lat="48.38918" lon="2.59789">
        <ele>116.4567871</ele>
        <time>2012-03-25T07:32:59Z</time>
      </trkpt>
      <trkpt lat="48.38973" lon="2.59799">
        <ele>116.9375</ele>
        <time>2012-03-25T07:33:12Z</time>
      </trkpt>
      <trkpt lat="48.39039" lon="2.5981">
        <ele>117.8988037</ele>
        <time>2012-03-25T07:33:27Z</time>
      </trkpt>
      <trkpt lat="48.39106" lon="2.59823">
        <ele>116.4567871</ele>
        <time>2012-03-25T07:33:42Z</time>
      </trkpt>
      <trkpt lat="48.39161" lon="2.59834">
        <ele>113.0922852</ele>
        <time>2012-03-25T07:33:53Z</time>
      </trkpt>
      <trkpt lat="48.39255" lon="2.59849">
        <ele>104.9210205</ele>
        <time>2012-03-25T07:34:08Z</time>
      </trkpt>
      <trkpt lat="48.3929" lon="2.59855">
        <ele>98.1918945</ele>
        <time>2012-03-25T07:34:12Z</time>
      </trkpt>
      <trkpt lat="48.3939" lon="2.59916">
        <ele>89.0593262</ele>
        <time>2012-03-25T07:34:22Z</time>
      </trkpt>
      <trkpt lat="48.39426" lon="2.59938">
        <ele>86.175293</ele>
        <time>2012-03-25T07:34:26Z</time>
      </trkpt>
      <trkpt lat="48.39476" lon="2.59969">
        <ele>83.2913818</ele>
        <time>2012-03-25T07:34:33Z</time>
      </trkpt>
      <trkpt lat="48.39497" lon="2.59968">
        <ele>82.3300781</ele>
        <time>2012-03-25T07:34:41Z</time>
      </trkpt>
      <trkpt lat="48.39499" lon="2.59913">
        <ele>81.3687744</ele>
        <time>2012-03-25T07:34:52Z</time>
      </trkpt>
      <trkpt lat="48.39506" lon="2.59864">
        <ele>80.8881836</ele>
        <time>2012-03-25T07:34:59Z</time>
      </trkpt>
      <trkpt lat="48.3953" lon="2.59707">
        <ele>79.4460449</ele>
        <time>2012-03-25T07:35:21Z</time>
      </trkpt>
      <trkpt lat="48.39555" lon="2.59536">
        <ele>78.0040283</ele>
        <time>2012-03-25T07:35:42Z</time>
      </trkpt>
      <trkpt lat="48.39579" lon="2.59391">
        <ele>76.0814209</ele>
        <time>2012-03-25T07:36:00Z</time>
      </trkpt>
      <trkpt lat="48.39585" lon="2.59352">
        <ele>75.6008301</ele>
        <time>2012-03-25T07:36:05Z</time>
      </trkpt>
      <trkpt lat="48.39601" lon="2.59245">
        <ele>74.6395264</ele>
        <time>2012-03-25T07:36:21Z</time>
      </trkpt>
      <trkpt lat="48.39603" lon="2.59239">
        <ele>74.6395264</ele>
        <time>2012-03-25T07:36:22Z</time>
      </trkpt>
      <trkpt lat="48.39617" lon="2.59134">
        <ele>71.2749023</ele>
        <time>2012-03-25T07:36:37Z</time>
      </trkpt>
      <trkpt lat="48.3962" lon="2.59093">
        <ele>70.3134766</ele>
        <time>2012-03-25T07:36:42Z</time>
      </trkpt>
      <trkpt lat="48.39632" lon="2.58968">
        <ele>72.7169189</ele>
        <time>2012-03-25T07:36:59Z</time>
      </trkpt>
      <trkpt lat="48.39634" lon="2.58933">
        <ele>73.1976318</ele>
        <time>2012-03-25T07:37:04Z</time>
      </trkpt>
      <trkpt lat="48.39636" lon="2.58899">
        <ele>73.1976318</ele>
        <time>2012-03-25T07:37:09Z</time>
      </trkpt>
      <trkpt lat="48.39665" lon="2.58861">
        <ele>74.6395264</ele>
        <time>2012-03-25T07:37:22Z</time>
      </trkpt>
      <trkpt lat="48.39691" lon="2.58856">
        <ele>77.5234375</ele>
        <time>2012-03-25T07:37:35Z</time>
      </trkpt>
      <trkpt lat="48.39717" lon="2.58847">
        <ele>80.8881836</ele>
        <time>2012-03-25T07:37:47Z</time>
      </trkpt>
      <trkpt lat="48.39747" lon="2.58858">
        <ele>86.6560059</ele>
        <time>2012-03-25T07:38:02Z</time>
      </trkpt>
      <trkpt lat="48.39766" lon="2.58873">
        <ele>89.539917</ele>
        <time>2012-03-25T07:38:12Z</time>
      </trkpt>
      <trkpt lat="48.39774" lon="2.58875">
        <ele>89.539917</ele>
        <time>2012-03-25T07:38:16Z</time>
      </trkpt>
      <trkpt lat="48.39806" lon="2.58883">
        <ele>92.904541</ele>
        <time>2012-03-25T07:38:30Z</time>
      </trkpt>
      <trkpt lat="48.39813" lon="2.58884">
        <ele>93.8658447</ele>
        <time>2012-03-25T07:38:33Z</time>
      </trkpt>
      <trkpt lat="48.39821" lon="2.58894">
        <ele>95.7884521</ele>
        <time>2012-03-25T07:38:38Z</time>
      </trkpt>
      <trkpt lat="48.39835" lon="2.5895">
        <ele>101.0756836</ele>
        <time>2012-03-25T07:38:57Z</time>
      </trkpt>
      <trkpt lat="48.39837" lon="2.58984">
        <ele>103.9597168</ele>
        <time>2012-03-25T07:39:10Z</time>
      </trkpt>
      <trkpt lat="48.39844" lon="2.58998">
        <ele>106.3630371</ele>
        <time>2012-03-25T07:39:16Z</time>
      </trkpt>
      <trkpt lat="48.39852" lon="2.58999">
        <ele>107.3243408</ele>
        <time>2012-03-25T07:39:21Z</time>
      </trkpt>
      <trkpt lat="48.39892" lon="2.58983">
        <ele>110.6888428</ele>
        <time>2012-03-25T07:39:42Z</time>
      </trkpt>
      <trkpt lat="48.39918" lon="2.5903">
        <ele>103.4790039</ele>
        <time>2012-03-25T07:39:52Z</time>
      </trkpt>
      <trkpt lat="48.39927" lon="2.59054">
        <ele>101.0756836</ele>
        <time>2012-03-25T07:39:55Z</time>
      </trkpt>
      <trkpt lat="48.39928" lon="2.59094">
        <ele>101.0756836</ele>
        <time>2012-03-25T07:40:00Z</time>
      </trkpt>
      <trkpt lat="48.3992" lon="2.59153">
        <ele>104.4404297</ele>
        <time>2012-03-25T07:40:11Z</time>
      </trkpt>
      <trkpt lat="48.39924" lon="2.59177">
        <ele>107.8050537</ele>
        <time>2012-03-25T07:40:17Z</time>
      </trkpt>
      <trkpt lat="48.39929" lon="2.59191">
        <ele>108.7662354</ele>
        <time>2012-03-25T07:40:21Z</time>
      </trkpt>
      <trkpt lat="48.39934" lon="2.59228">
        <ele>114.0535889</ele>
        <time>2012-03-25T07:40:30Z</time>
      </trkpt>
      <trkpt lat="48.39939" lon="2.59248">
        <ele>114.0535889</ele>
        <time>2012-03-25T07:40:37Z</time>
      </trkpt>
      <trkpt lat="48.39941" lon="2.59285">
        <ele>118.3793945</ele>
        <time>2012-03-25T07:40:51Z</time>
      </trkpt>
      <trkpt lat="48.39928" lon="2.59336">
        <ele>120.302124</ele>
        <time>2012-03-25T07:41:04Z</time>
      </trkpt>
      <trkpt lat="48.39928" lon="2.59368">
        <ele>118.8601074</ele>
        <time>2012-03-25T07:41:09Z</time>
      </trkpt>
      <trkpt lat="48.3994" lon="2.59397">
        <ele>116.9375</ele>
        <time>2012-03-25T07:41:14Z</time>
      </trkpt>
      <trkpt lat="48.39948" lon="2.59435">
        <ele>112.1309814</ele>
        <time>2012-03-25T07:41:20Z</time>
      </trkpt>
      <trkpt lat="48.3992" lon="2.5945">
        <ele>107.8050537</ele>
        <time>2012-03-25T07:41:27Z</time>
      </trkpt>
      <trkpt lat="48.39914" lon="2.59451">
        <ele>107.3243408</ele>
        <time>2012-03-25T07:41:28Z</time>
      </trkpt>
      <trkpt lat="48.39903" lon="2.59452">
        <ele>106.8436279</ele>
        <time>2012-03-25T07:41:30Z</time>
      </trkpt>
      <trkpt lat="48.39885" lon="2.59462">
        <ele>105.4017334</ele>
        <time>2012-03-25T07:41:34Z</time>
      </trkpt>
      <trkpt lat="48.39881" lon="2.59486">
        <ele>107.3243408</ele>
        <time>2012-03-25T07:41:38Z</time>
      </trkpt>
      <trkpt lat="48.39884" lon="2.59608">
        <ele>112.6115723</ele>
        <time>2012-03-25T07:41:55Z</time>
      </trkpt>
      <trkpt lat="48.39888" lon="2.59667">
        <ele>109.7276611</ele>
        <time>2012-03-25T07:42:04Z</time>
      </trkpt>
      <trkpt lat="48.39896" lon="2.59776">
        <ele>109.2469482</ele>
        <time>2012-03-25T07:42:23Z</time>
      </trkpt>
      <trkpt lat="48.39907" lon="2.59843">
        <ele>109.7276611</ele>
        <time>2012-03-25T07:42:35Z</time>
      </trkpt>
      <trkpt lat="48.39901" lon="2.59866">
        <ele>109.2469482</ele>
        <time>2012-03-25T07:42:39Z</time>
      </trkpt>
      <trkpt lat="48.39893" lon="2.5988">
        <ele>109.2469482</ele>
        <time>2012-03-25T07:42:42Z</time>
      </trkpt>
      <trkpt lat="48.39848" lon="2.59967">
        <ele>110.208252</ele>
        <time>2012-03-25T07:42:58Z</time>
      </trkpt>
      <trkpt lat="48.39835" lon="2.59994">
        <ele>108.7662354</ele>
        <time>2012-03-25T07:43:03Z</time>
      </trkpt>
      <trkpt lat="48.39827" lon="2.60022">
        <ele>109.7276611</ele>
        <time>2012-03-25T07:43:07Z</time>
      </trkpt>
      <trkpt lat="48.39805" lon="2.60141">
        <ele>112.1309814</ele>
        <time>2012-03-25T07:43:22Z</time>
      </trkpt>
      <trkpt lat="48.398" lon="2.60165">
        <ele>113.0922852</ele>
        <time>2012-03-25T07:43:25Z</time>
      </trkpt>
      <trkpt lat="48.39793" lon="2.60187">
        <ele>115.0148926</ele>
        <time>2012-03-25T07:43:28Z</time>
      </trkpt>
      <trkpt lat="48.39791" lon="2.60202">
        <ele>115.4956055</ele>
        <time>2012-03-25T07:43:30Z</time>
      </trkpt>
      <trkpt lat="48.39788" lon="2.60215">
        <ele>116.4567871</ele>
        <time>2012-03-25T07:43:32Z</time>
      </trkpt>
      <trkpt lat="48.39796" lon="2.60239">
        <ele>115.4956055</ele>
        <time>2012-03-25T07:43:36Z</time>
      </trkpt>
      <trkpt lat="48.39816" lon="2.60278">
        <ele>112.1309814</ele>
        <time>2012-03-25T07:43:45Z</time>
      </trkpt>
      <trkpt lat="48.39822" lon="2.6029">
        <ele>112.1309814</ele>
        <time>2012-03-25T07:43:47Z</time>
      </trkpt>
      <trkpt lat="48.3986" lon="2.60392">
        <ele>112.6115723</ele>
        <time>2012-03-25T07:44:03Z</time>
      </trkpt>
      <trkpt lat="48.39878" lon="2.60406">
        <ele>113.0922852</ele>
        <time>2012-03-25T07:44:09Z</time>
      </trkpt>
      <trkpt lat="48.39901" lon="2.60405">
        <ele>113.0922852</ele>
        <time>2012-03-25T07:44:15Z</time>
      </trkpt>
      <trkpt lat="48.39945" lon="2.60437">
        <ele>111.1695557</ele>
        <time>2012-03-25T07:44:25Z</time>
      </trkpt>
      <trkpt lat="48.39965" lon="2.60451">
        <ele>107.8050537</ele>
        <time>2012-03-25T07:44:30Z</time>
      </trkpt>
      <trkpt lat="48.39977" lon="2.6044">
        <ele>105.4017334</ele>
        <time>2012-03-25T07:44:34Z</time>
      </trkpt>
      <trkpt lat="48.39995" lon="2.60361">
        <ele>103.9597168</ele>
        <time>2012-03-25T07:44:50Z</time>
      </trkpt>
      <trkpt lat="48.40012" lon="2.60316">
        <ele>105.4017334</ele>
        <time>2012-03-25T07:45:03Z</time>
      </trkpt>
      <trkpt lat="48.40026" lon="2.60299">
        <ele>106.8436279</ele>
        <time>2012-03-25T07:45:11Z</time>
      </trkpt>
      <trkpt lat="48.4005" lon="2.60278">
        <ele>109.7276611</ele>
        <time>2012-03-25T07:45:25Z</time>
      </trkpt>
      <trkpt lat="48.40071" lon="2.60267">
        <ele>112.6115723</ele>
        <time>2012-03-25T07:45:38Z</time>
      </trkpt>
      <trkpt lat="48.401" lon="2.60257">
        <ele>113.572998</ele>
        <time>2012-03-25T07:45:49Z</time>
      </trkpt>
      <trkpt lat="48.40132" lon="2.60245">
        <ele>117.8988037</ele>
        <time>2012-03-25T07:46:00Z</time>
      </trkpt>
      <trkpt lat="48.40173" lon="2.60232">
        <ele>116.4567871</ele>
        <time>2012-03-25T07:46:12Z</time>
      </trkpt>
      <trkpt lat="48.40221" lon="2.60209">
        <ele>117.4182129</ele>
        <time>2012-03-25T07:46:22Z</time>
      </trkpt>
      <trkpt lat="48.40229" lon="2.6019">
        <ele>117.4182129</ele>
        <time>2012-03-25T07:46:26Z</time>
      </trkpt>
      <trkpt lat="48.4023" lon="2.60151">
        <ele>115.4956055</ele>
        <time>2012-03-25T07:46:32Z</time>
      </trkpt>
      <trkpt lat="48.40226" lon="2.60124">
        <ele>115.0148926</ele>
        <time>2012-03-25T07:46:36Z</time>
      </trkpt>
      <trkpt lat="48.40222" lon="2.60088">
        <ele>114.0535889</ele>
        <time>2012-03-25T07:46:41Z</time>
      </trkpt>
      <trkpt lat="48.40238" lon="2.59951">
        <ele>113.0922852</ele>
        <time>2012-03-25T07:46:57Z</time>
      </trkpt>
      <trkpt lat="48.40243" lon="2.59825">
        <ele>107.8050537</ele>
        <time>2012-03-25T07:47:09Z</time>
      </trkpt>
      <trkpt lat="48.40244" lon="2.59787">
        <ele>106.3630371</ele>
        <time>2012-03-25T07:47:13Z</time>
      </trkpt>
      <trkpt lat="48.40272" lon="2.59717">
        <ele>102.5177002</ele>
        <time>2012-03-25T07:47:20Z</time>
      </trkpt>
      <trkpt lat="48.40278" lon="2.59646">
        <ele>99.1530762</ele>
        <time>2012-03-25T07:47:26Z</time>
      </trkpt>
      <trkpt lat="48.40275" lon="2.59528">
        <ele>97.2304688</ele>
        <time>2012-03-25T07:47:35Z</time>
      </trkpt>
      <trkpt lat="48.40279" lon="2.5948">
        <ele>96.2692871</ele>
        <time>2012-03-25T07:47:39Z</time>
      </trkpt>
      <trkpt lat="48.40292" lon="2.59424">
        <ele>92.4239502</ele>
        <time>2012-03-25T07:47:44Z</time>
      </trkpt>
      <trkpt lat="48.40293" lon="2.59399">
        <ele>90.9819336</ele>
        <time>2012-03-25T07:47:46Z</time>
      </trkpt>
      <trkpt lat="48.40281" lon="2.59292">
        <ele>83.2913818</ele>
        <time>2012-03-25T07:47:54Z</time>
      </trkpt>
      <trkpt lat="48.40277" lon="2.59255">
        <ele>82.810791</ele>
        <time>2012-03-25T07:47:57Z</time>
      </trkpt>
      <trkpt lat="48.40267" lon="2.59142">
        <ele>78.9654541</ele>
        <time>2012-03-25T07:48:07Z</time>
      </trkpt>
      <trkpt lat="48.40255" lon="2.59046">
        <ele>74.6395264</ele>
        <time>2012-03-25T07:48:15Z</time>
      </trkpt>
      <trkpt lat="48.40253" lon="2.59011">
        <ele>74.6395264</ele>
        <time>2012-03-25T07:48:18Z</time>
      </trkpt>
      <trkpt lat="48.4024" lon="2.58845">
        <ele>68.871582</ele>
        <time>2012-03-25T07:48:33Z</time>
      </trkpt>
      <trkpt lat="48.40234" lon="2.58793">
        <ele>68.3908691</ele>
        <time>2012-03-25T07:48:38Z</time>
      </trkpt>
      <trkpt lat="48.40239" lon="2.58707">
        <ele>69.3522949</ele>
        <time>2012-03-25T07:48:48Z</time>
      </trkpt>
      <trkpt lat="48.40241" lon="2.58678">
        <ele>68.871582</ele>
        <time>2012-03-25T07:48:53Z</time>
      </trkpt>
      <trkpt lat="48.40245" lon="2.58637">
        <ele>68.3908691</ele>
        <time>2012-03-25T07:48:59Z</time>
      </trkpt>
      <trkpt lat="48.40247" lon="2.58599">
        <ele>67.4296875</ele>
        <time>2012-03-25T07:49:04Z</time>
      </trkpt>
      <trkpt lat="48.40253" lon="2.58549">
        <ele>67.4296875</ele>
        <time>2012-03-25T07:49:11Z</time>
      </trkpt>
      <trkpt lat="48.40253" lon="2.5852">
        <ele>65.9876709</ele>
        <time>2012-03-25T07:49:15Z</time>
      </trkpt>
      <trkpt lat="48.40247" lon="2.58491">
        <ele>63.1036377</ele>
        <time>2012-03-25T07:49:19Z</time>
      </trkpt>
      <trkpt lat="48.40246" lon="2.58453">
        <ele>64.5456543</ele>
        <time>2012-03-25T07:49:24Z</time>
      </trkpt>
      <trkpt lat="48.4025" lon="2.58425">
        <ele>64.5456543</ele>
        <time>2012-03-25T07:49:28Z</time>
      </trkpt>
      <trkpt lat="48.40274" lon="2.58416">
        <ele>66.4682617</ele>
        <time>2012-03-25T07:49:35Z</time>
      </trkpt>
      <trkpt lat="48.40283" lon="2.58425">
        <ele>66.4682617</ele>
        <time>2012-03-25T07:49:37Z</time>
      </trkpt>
      <trkpt lat="48.40324" lon="2.58449">
        <ele>71.7554932</ele>
        <time>2012-03-25T07:49:46Z</time>
      </trkpt>
      <trkpt lat="48.40344" lon="2.58462">
        <ele>75.6008301</ele>
        <time>2012-03-25T07:49:50Z</time>
      </trkpt>
      <trkpt lat="48.40395" lon="2.585">
        <ele>71.2749023</ele>
        <time>2012-03-25T07:49:59Z</time>
      </trkpt>
      <trkpt lat="48.40428" lon="2.5852">
        <ele>73.1976318</ele>
        <time>2012-03-25T07:50:05Z</time>
      </trkpt>
      <trkpt lat="48.40456" lon="2.5853">
        <ele>73.1976318</ele>
        <time>2012-03-25T07:50:09Z</time>
      </trkpt>
      <trkpt lat="48.40483" lon="2.58532">
        <ele>73.1976318</ele>
        <time>2012-03-25T07:50:13Z</time>
      </trkpt>
      <trkpt lat="48.40503" lon="2.58541">
        <ele>74.1588135</ele>
        <time>2012-03-25T07:50:17Z</time>
      </trkpt>
      <trkpt lat="48.40539" lon="2.58544">
        <ele>74.6395264</ele>
        <time>2012-03-25T07:50:23Z</time>
      </trkpt>
      <trkpt lat="48.40559" lon="2.58523">
        <ele>73.6782227</ele>
        <time>2012-03-25T07:50:27Z</time>
      </trkpt>
      <trkpt lat="48.40573" lon="2.58473">
        <ele>76.0814209</ele>
        <time>2012-03-25T07:50:35Z</time>
      </trkpt>
      <trkpt lat="48.40578" lon="2.5846">
        <ele>76.5621338</ele>
        <time>2012-03-25T07:50:37Z</time>
      </trkpt>
      <trkpt lat="48.40589" lon="2.58442">
        <ele>73.1976318</ele>
        <time>2012-03-25T07:50:40Z</time>
      </trkpt>
      <trkpt lat="48.40604" lon="2.58409">
        <ele>73.6782227</ele>
        <time>2012-03-25T07:50:45Z</time>
      </trkpt>
      <trkpt lat="48.4061" lon="2.58386">
        <ele>73.1976318</ele>
        <time>2012-03-25T07:50:48Z</time>
      </trkpt>
      <trkpt lat="48.40614" lon="2.58347">
        <ele>72.7169189</ele>
        <time>2012-03-25T07:50:53Z</time>
      </trkpt>
      <trkpt lat="48.40617" lon="2.58332">
        <ele>72.2362061</ele>
        <time>2012-03-25T07:50:55Z</time>
      </trkpt>
      <trkpt lat="48.40631" lon="2.58262">
        <ele>70.3134766</ele>
        <time>2012-03-25T07:51:04Z</time>
      </trkpt>
      <trkpt lat="48.40633" lon="2.58246">
        <ele>69.8328857</ele>
        <time>2012-03-25T07:51:06Z</time>
      </trkpt>
      <trkpt lat="48.40644" lon="2.58186">
        <ele>67.4296875</ele>
        <time>2012-03-25T07:51:14Z</time>
      </trkpt>
      <trkpt lat="48.4067" lon="2.58088">
        <ele>68.871582</ele>
        <time>2012-03-25T07:51:27Z</time>
      </trkpt>
      <trkpt lat="48.40684" lon="2.58024">
        <ele>66.9489746</ele>
        <time>2012-03-25T07:51:36Z</time>
      </trkpt>
      <trkpt lat="48.40694" lon="2.57994">
        <ele>67.9102783</ele>
        <time>2012-03-25T07:51:41Z</time>
      </trkpt>
      <trkpt lat="48.40705" lon="2.57964">
        <ele>65.0263672</ele>
        <time>2012-03-25T07:51:46Z</time>
      </trkpt>
      <trkpt lat="48.40708" lon="2.57952">
        <ele>65.0263672</ele>
        <time>2012-03-25T07:51:48Z</time>
      </trkpt>
      <trkpt lat="48.40712" lon="2.57934">
        <ele>65.0263672</ele>
        <time>2012-03-25T07:51:51Z</time>
      </trkpt>
      <trkpt lat="48.40739" lon="2.57891">
        <ele>67.9102783</ele>
        <time>2012-03-25T07:52:01Z</time>
      </trkpt>
      <trkpt lat="48.40745" lon="2.57885">
        <ele>67.9102783</ele>
        <time>2012-03-25T07:52:03Z</time>
      </trkpt>
      <trkpt lat="48.40772" lon="2.57881">
        <ele>71.2749023</ele>
        <time>2012-03-25T07:52:12Z</time>
      </trkpt>
      <trkpt lat="48.4081" lon="2.57866">
        <ele>74.6395264</ele>
        <time>2012-03-25T07:52:23Z</time>
      </trkpt>
      <trkpt lat="48.40846" lon="2.57862">
        <ele>72.2362061</ele>
        <time>2012-03-25T07:52:33Z</time>
      </trkpt>
      <trkpt lat="48.40849" lon="2.57863">
        <ele>72.2362061</ele>
        <time>2012-03-25T07:52:34Z</time>
      </trkpt>
      <trkpt lat="48.40881" lon="2.57873">
        <ele>71.7554932</ele>
        <time>2012-03-25T07:52:44Z</time>
      </trkpt>
      <trkpt lat="48.40906" lon="2.57883">
        <ele>69.8328857</ele>
        <time>2012-03-25T07:52:51Z</time>
      </trkpt>
      <trkpt lat="48.40927" lon="2.57906">
        <ele>70.3134766</ele>
        <time>2012-03-25T07:52:59Z</time>
      </trkpt>
      <trkpt lat="48.40947" lon="2.5792">
        <ele>69.3522949</ele>
        <time>2012-03-25T07:53:04Z</time>
      </trkpt>
      <trkpt lat="48.40966" lon="2.57924">
        <ele>69.8328857</ele>
        <time>2012-03-25T07:53:08Z</time>
      </trkpt>
      <trkpt lat="48.40994" lon="2.5792">
        <ele>72.2362061</ele>
        <time>2012-03-25T07:53:14Z</time>
      </trkpt>
      <trkpt lat="48.41016" lon="2.57964">
        <ele>76.0814209</ele>
        <time>2012-03-25T07:53:24Z</time>
      </trkpt>
      <trkpt lat="48.41018" lon="2.57982">
        <ele>78.9654541</ele>
        <time>2012-03-25T07:53:27Z</time>
      </trkpt>
      <trkpt lat="48.41024" lon="2.58054">
        <ele>82.3300781</ele>
        <time>2012-03-25T07:53:37Z</time>
      </trkpt>
      <trkpt lat="48.41026" lon="2.58091">
        <ele>89.0593262</ele>
        <time>2012-03-25T07:53:42Z</time>
      </trkpt>
      <trkpt lat="48.41026" lon="2.5817">
        <ele>90.9819336</ele>
        <time>2012-03-25T07:53:53Z</time>
      </trkpt>
      <trkpt lat="48.41037" lon="2.58221">
        <ele>82.810791</ele>
        <time>2012-03-25T07:54:01Z</time>
      </trkpt>
      <trkpt lat="48.41052" lon="2.58265">
        <ele>78.4847412</ele>
        <time>2012-03-25T07:54:08Z</time>
      </trkpt>
      <trkpt lat="48.41063" lon="2.58301">
        <ele>78.4847412</ele>
        <time>2012-03-25T07:54:14Z</time>
      </trkpt>
      <trkpt lat="48.41085" lon="2.58349">
        <ele>76.5621338</ele>
        <time>2012-03-25T07:54:22Z</time>
      </trkpt>
      <trkpt lat="48.41092" lon="2.58366">
        <ele>75.6008301</ele>
        <time>2012-03-25T07:54:25Z</time>
      </trkpt>
      <trkpt lat="48.41129" lon="2.58468">
        <ele>73.6782227</ele>
        <time>2012-03-25T07:54:42Z</time>
      </trkpt>
      <trkpt lat="48.41158" lon="2.58568">
        <ele>72.2362061</ele>
        <time>2012-03-25T07:54:59Z</time>
      </trkpt>
      <trkpt lat="48.41185" lon="2.58659">
        <ele>70.7941895</ele>
        <time>2012-03-25T07:55:15Z</time>
      </trkpt>
      <trkpt lat="48.41192" lon="2.58689">
        <ele>70.7941895</ele>
        <time>2012-03-25T07:55:20Z</time>
      </trkpt>
      <trkpt lat="48.41229" lon="2.58807">
        <ele>66.4682617</ele>
        <time>2012-03-25T07:55:39Z</time>
      </trkpt>
      <trkpt lat="48.4126" lon="2.58938">
        <ele>66.4682617</ele>
        <time>2012-03-25T07:55:59Z</time>
      </trkpt>
      <trkpt lat="48.41264" lon="2.58957">
        <ele>66.4682617</ele>
        <time>2012-03-25T07:56:02Z</time>
      </trkpt>
      <trkpt lat="48.41293" lon="2.59073">
        <ele>66.4682617</ele>
        <time>2012-03-25T07:56:20Z</time>
      </trkpt>
      <trkpt lat="48.413" lon="2.59111">
        <ele>66.9489746</ele>
        <time>2012-03-25T07:56:26Z</time>
      </trkpt>
      <trkpt lat="48.41305" lon="2.5913">
        <ele>68.3908691</ele>
        <time>2012-03-25T07:56:29Z</time>
      </trkpt>
      <trkpt lat="48.41334" lon="2.59217">
        <ele>65.9876709</ele>
        <time>2012-03-25T07:56:43Z</time>
      </trkpt>
      <trkpt lat="48.41342" lon="2.59257">
        <ele>65.0263672</ele>
        <time>2012-03-25T07:56:49Z</time>
      </trkpt>
      <trkpt lat="48.41361" lon="2.5932">
        <ele>66.4682617</ele>
        <time>2012-03-25T07:56:59Z</time>
      </trkpt>
      <trkpt lat="48.41355" lon="2.5933">
        <ele>67.4296875</ele>
        <time>2012-03-25T07:57:03Z</time>
      </trkpt>
      <trkpt lat="48.41345" lon="2.59323">
        <ele>67.4296875</ele>
        <time>2012-03-25T07:57:06Z</time>
      </trkpt>
      <trkpt lat="48.4125" lon="2.59282">
        <ele>69.8328857</ele>
        <time>2012-03-25T07:57:27Z</time>
      </trkpt>
      <trkpt lat="48.41179" lon="2.59252">
        <ele>69.3522949</ele>
        <time>2012-03-25T07:57:43Z</time>
      </trkpt>
      <trkpt lat="48.41132" lon="2.59233">
        <ele>69.3522949</ele>
        <time>2012-03-25T07:57:54Z</time>
      </trkpt>
      <trkpt lat="48.41076" lon="2.5921">
        <ele>68.3908691</ele>
        <time>2012-03-25T07:58:07Z</time>
      </trkpt>
      <trkpt lat="48.41007" lon="2.59179">
        <ele>69.3522949</ele>
        <time>2012-03-25T07:58:22Z</time>
      </trkpt>
      <trkpt lat="48.40988" lon="2.59195">
        <ele>68.871582</ele>
        <time>2012-03-25T07:58:27Z</time>
      </trkpt>
      <trkpt lat="48.40975" lon="2.59343">
        <ele>71.2749023</ele>
        <time>2012-03-25T07:58:47Z</time>
      </trkpt>
      <trkpt lat="48.40972" lon="2.59379">
        <ele>70.7941895</ele>
        <time>2012-03-25T07:58:52Z</time>
      </trkpt>
      <trkpt lat="48.4096" lon="2.59537">
        <ele>70.7941895</ele>
        <time>2012-03-25T07:59:11Z</time>
      </trkpt>
      <trkpt lat="48.40959" lon="2.59545">
        <ele>70.7941895</ele>
        <time>2012-03-25T07:59:12Z</time>
      </trkpt>
      <trkpt lat="48.40965" lon="2.59575">
        <ele>70.3134766</ele>
        <time>2012-03-25T07:59:16Z</time>
      </trkpt>
      <trkpt lat="48.41018" lon="2.59675">
        <ele>67.9102783</ele>
        <time>2012-03-25T07:59:32Z</time>
      </trkpt>
      <trkpt lat="48.41037" lon="2.59706">
        <ele>65.9876709</ele>
        <time>2012-03-25T07:59:37Z</time>
      </trkpt>
      <trkpt lat="48.41074" lon="2.59776">
        <ele>67.4296875</ele>
        <time>2012-03-25T07:59:48Z</time>
      </trkpt>
      <trkpt lat="48.41095" lon="2.5982">
        <ele>68.871582</ele>
        <time>2012-03-25T07:59:58Z</time>
      </trkpt>
      <trkpt lat="48.41102" lon="2.59828">
        <ele>68.871582</ele>
        <time>2012-03-25T08:00:14Z</time>
      </trkpt>
      <trkpt lat="48.41108" lon="2.59828">
        <ele>68.871582</ele>
        <time>2012-03-25T08:00:24Z</time>
      </trkpt>
      <trkpt lat="48.4111" lon="2.59828">
        <ele>67.4296875</ele>
        <time>2012-03-25T08:01:30Z</time>
      </trkpt>
      <trkpt lat="48.41109" lon="2.59834">
        <ele>68.871582</ele>
        <time>2012-03-25T08:10:15Z</time>
      </trkpt>
      <trkpt lat="48.41108" lon="2.59833">
        <ele>68.871582</ele>
        <time>2012-03-25T08:10:24Z</time>
      </trkpt>
      <trkpt lat="48.41108" lon="2.59838">
        <ele>68.3908691</ele>
        <time>2012-03-25T08:10:39Z</time>
      </trkpt>
      <trkpt lat="48.41108" lon="2.59838">
        <ele>68.3908691</ele>
        <time>2012-03-25T08:10:49Z</time>
      </trkpt>
      <trkpt lat="48.41115" lon="2.59844">
        <ele>68.871582</ele>
        <time>2012-03-25T08:10:55Z</time>
      </trkpt>
      <trkpt lat="48.41121" lon="2.59852">
        <ele>68.3908691</ele>
        <time>2012-03-25T08:10:58Z</time>
      </trkpt>
      <trkpt lat="48.41128" lon="2.59873">
        <ele>71.2749023</ele>
        <time>2012-03-25T08:11:04Z</time>
      </trkpt>
      <trkpt lat="48.41148" lon="2.59906">
        <ele>70.7941895</ele>
        <time>2012-03-25T08:11:10Z</time>
      </trkpt>
      <trkpt lat="48.41177" lon="2.59957">
        <ele>67.9102783</ele>
        <time>2012-03-25T08:11:18Z</time>
      </trkpt>
      <trkpt lat="48.41186" lon="2.59977">
        <ele>69.3522949</ele>
        <time>2012-03-25T08:11:21Z</time>
      </trkpt>
      <trkpt lat="48.41196" lon="2.59994">
        <ele>69.3522949</ele>
        <time>2012-03-25T08:11:24Z</time>
      </trkpt>
      <trkpt lat="48.41213" lon="2.60022">
        <ele>67.9102783</ele>
        <time>2012-03-25T08:11:29Z</time>
      </trkpt>
      <trkpt lat="48.41248" lon="2.6008">
        <ele>65.0263672</ele>
        <time>2012-03-25T08:11:40Z</time>
      </trkpt>
      <trkpt lat="48.41298" lon="2.60178">
        <ele>69.3522949</ele>
        <time>2012-03-25T08:11:59Z</time>
      </trkpt>
      <trkpt lat="48.41347" lon="2.60266">
        <ele>71.2749023</ele>
        <time>2012-03-25T08:12:16Z</time>
      </trkpt>
      <trkpt lat="48.41413" lon="2.6038">
        <ele>67.9102783</ele>
        <time>2012-03-25T08:12:38Z</time>
      </trkpt>
      <trkpt lat="48.41466" lon="2.60477">
        <ele>66.9489746</ele>
        <time>2012-03-25T08:12:56Z</time>
      </trkpt>
      <trkpt lat="48.4153" lon="2.60597">
        <ele>73.6782227</ele>
        <time>2012-03-25T08:13:19Z</time>
      </trkpt>
      <trkpt lat="48.41552" lon="2.60637">
        <ele>73.1976318</ele>
        <time>2012-03-25T08:13:27Z</time>
      </trkpt>
      <trkpt lat="48.41586" lon="2.60698">
        <ele>74.1588135</ele>
        <time>2012-03-25T08:13:39Z</time>
      </trkpt>
      <trkpt lat="48.4161" lon="2.60742">
        <ele>75.1202393</ele>
        <time>2012-03-25T08:13:48Z</time>
      </trkpt>
      <trkpt lat="48.41621" lon="2.6078">
        <ele>76.5621338</ele>
        <time>2012-03-25T08:13:56Z</time>
      </trkpt>
      <trkpt lat="48.41631" lon="2.60854">
        <ele>84.7333984</ele>
        <time>2012-03-25T08:14:11Z</time>
      </trkpt>
      <trkpt lat="48.41639" lon="2.60915">
        <ele>86.175293</ele>
        <time>2012-03-25T08:14:25Z</time>
      </trkpt>
      <trkpt lat="48.4164" lon="2.60952">
        <ele>90.9819336</ele>
        <time>2012-03-25T08:14:35Z</time>
      </trkpt>
      <trkpt lat="48.41646" lon="2.61">
        <ele>90.9819336</ele>
        <time>2012-03-25T08:14:47Z</time>
      </trkpt>
      <trkpt lat="48.41656" lon="2.61062">
        <ele>91.9432373</ele>
        <time>2012-03-25T08:15:05Z</time>
      </trkpt>
      <trkpt lat="48.41658" lon="2.61123">
        <ele>95.7884521</ele>
        <time>2012-03-25T08:15:24Z</time>
      </trkpt>
      <trkpt lat="48.41663" lon="2.61197">
        <ele>94.8271484</ele>
        <time>2012-03-25T08:15:38Z</time>
      </trkpt>
      <trkpt lat="48.41663" lon="2.61217">
        <ele>94.3465576</ele>
        <time>2012-03-25T08:15:41Z</time>
      </trkpt>
      <trkpt lat="48.41664" lon="2.61336">
        <ele>92.904541</ele>
        <time>2012-03-25T08:15:58Z</time>
      </trkpt>
      <trkpt lat="48.41662" lon="2.61396">
        <ele>92.904541</ele>
        <time>2012-03-25T08:16:07Z</time>
      </trkpt>
      <trkpt lat="48.41661" lon="2.6145">
        <ele>93.3851318</ele>
        <time>2012-03-25T08:16:15Z</time>
      </trkpt>
      <trkpt lat="48.41649" lon="2.6157">
        <ele>95.3077393</ele>
        <time>2012-03-25T08:16:34Z</time>
      </trkpt>
      <trkpt lat="48.41643" lon="2.61653">
        <ele>98.6724854</ele>
        <time>2012-03-25T08:16:49Z</time>
      </trkpt>
      <trkpt lat="48.41635" lon="2.61737">
        <ele>100.114502</ele>
        <time>2012-03-25T08:17:04Z</time>
      </trkpt>
      <trkpt lat="48.41628" lon="2.61827">
        <ele>101.5563965</ele>
        <time>2012-03-25T08:17:22Z</time>
      </trkpt>
      <trkpt lat="48.41622" lon="2.61903">
        <ele>104.4404297</ele>
        <time>2012-03-25T08:17:38Z</time>
      </trkpt>
      <trkpt lat="48.41617" lon="2.61972">
        <ele>103.9597168</ele>
        <time>2012-03-25T08:17:52Z</time>
      </trkpt>
      <trkpt lat="48.4161" lon="2.62047">
        <ele>102.998291</ele>
        <time>2012-03-25T08:18:05Z</time>
      </trkpt>
      <trkpt lat="48.41602" lon="2.62143">
        <ele>102.5177002</ele>
        <time>2012-03-25T08:18:20Z</time>
      </trkpt>
      <trkpt lat="48.41592" lon="2.62242">
        <ele>104.4404297</ele>
        <time>2012-03-25T08:18:35Z</time>
      </trkpt>
      <trkpt lat="48.41587" lon="2.62303">
        <ele>104.9210205</ele>
        <time>2012-03-25T08:18:44Z</time>
      </trkpt>
      <trkpt lat="48.41584" lon="2.62335">
        <ele>105.8824463</ele>
        <time>2012-03-25T08:18:49Z</time>
      </trkpt>
      <trkpt lat="48.41577" lon="2.62415">
        <ele>103.9597168</ele>
        <time>2012-03-25T08:19:01Z</time>
      </trkpt>
      <trkpt lat="48.41573" lon="2.62464">
        <ele>103.4790039</ele>
        <time>2012-03-25T08:19:09Z</time>
      </trkpt>
      <trkpt lat="48.41569" lon="2.62483">
        <ele>104.4404297</ele>
        <time>2012-03-25T08:19:15Z</time>
      </trkpt>
      <trkpt lat="48.41593" lon="2.62494">
        <ele>100.5950928</ele>
        <time>2012-03-25T08:19:23Z</time>
      </trkpt>
      <trkpt lat="48.4166" lon="2.62457">
        <ele>98.6724854</ele>
        <time>2012-03-25T08:19:36Z</time>
      </trkpt>
      <trkpt lat="48.41729" lon="2.62414">
        <ele>95.3077393</ele>
        <time>2012-03-25T08:19:49Z</time>
      </trkpt>
      <trkpt lat="48.41802" lon="2.62372">
        <ele>92.904541</ele>
        <time>2012-03-25T08:20:02Z</time>
      </trkpt>
      <trkpt lat="48.41866" lon="2.62333">
        <ele>92.904541</ele>
        <time>2012-03-25T08:20:14Z</time>
      </trkpt>
      <trkpt lat="48.41882" lon="2.62325">
        <ele>92.904541</ele>
        <time>2012-03-25T08:20:17Z</time>
      </trkpt>
      <trkpt lat="48.41928" lon="2.623">
        <ele>92.4239502</ele>
        <time>2012-03-25T08:20:25Z</time>
      </trkpt>
      <trkpt lat="48.41942" lon="2.62292">
        <ele>92.904541</ele>
        <time>2012-03-25T08:20:27Z</time>
      </trkpt>
      <trkpt lat="48.41977" lon="2.62271">
        <ele>93.3851318</ele>
        <time>2012-03-25T08:20:33Z</time>
      </trkpt>
      <trkpt lat="48.42046" lon="2.62229">
        <ele>91.9432373</ele>
        <time>2012-03-25T08:20:45Z</time>
      </trkpt>
      <trkpt lat="48.42125" lon="2.62184">
        <ele>92.904541</ele>
        <time>2012-03-25T08:20:59Z</time>
      </trkpt>
      <trkpt lat="48.42136" lon="2.62177">
        <ele>94.3465576</ele>
        <time>2012-03-25T08:21:02Z</time>
      </trkpt>
      <trkpt lat="48.42185" lon="2.62145">
        <ele>90.5013428</ele>
        <time>2012-03-25T08:21:12Z</time>
      </trkpt>
      <trkpt lat="48.42228" lon="2.62116">
        <ele>90.5013428</ele>
        <time>2012-03-25T08:21:22Z</time>
      </trkpt>
      <trkpt lat="48.42265" lon="2.62095">
        <ele>94.3465576</ele>
        <time>2012-03-25T08:21:32Z</time>
      </trkpt>
      <trkpt lat="48.42317" lon="2.62066">
        <ele>98.6724854</ele>
        <time>2012-03-25T08:21:47Z</time>
      </trkpt>
      <trkpt lat="48.42359" lon="2.62023">
        <ele>101.0756836</ele>
        <time>2012-03-25T08:22:00Z</time>
      </trkpt>
      <trkpt lat="48.42415" lon="2.61968">
        <ele>104.9210205</ele>
        <time>2012-03-25T08:22:16Z</time>
      </trkpt>
      <trkpt lat="48.42451" lon="2.61927">
        <ele>106.3630371</ele>
        <time>2012-03-25T08:22:27Z</time>
      </trkpt>
      <trkpt lat="48.4249" lon="2.61888">
        <ele>103.9597168</ele>
        <time>2012-03-25T08:22:39Z</time>
      </trkpt>
      <trkpt lat="48.42515" lon="2.61858">
        <ele>104.4404297</ele>
        <time>2012-03-25T08:22:49Z</time>
      </trkpt>
      <trkpt lat="48.42544" lon="2.61827">
        <ele>105.4017334</ele>
        <time>2012-03-25T08:23:02Z</time>
      </trkpt>
      <trkpt lat="48.42573" lon="2.61795">
        <ele>108.2856445</ele>
        <time>2012-03-25T08:23:15Z</time>
      </trkpt>
      <trkpt lat="48.42601" lon="2.61764">
        <ele>109.2469482</ele>
        <time>2012-03-25T08:23:28Z</time>
      </trkpt>
      <trkpt lat="48.42629" lon="2.61713">
        <ele>110.208252</ele>
        <time>2012-03-25T08:23:42Z</time>
      </trkpt>
      <trkpt lat="48.42644" lon="2.61668">
        <ele>110.6888428</ele>
        <time>2012-03-25T08:23:52Z</time>
      </trkpt>
      <trkpt lat="48.4266" lon="2.6161">
        <ele>114.0535889</ele>
        <time>2012-03-25T08:24:03Z</time>
      </trkpt>
      <trkpt lat="48.42671" lon="2.61554">
        <ele>115.0148926</ele>
        <time>2012-03-25T08:24:12Z</time>
      </trkpt>
      <trkpt lat="48.42676" lon="2.6152">
        <ele>115.0148926</ele>
        <time>2012-03-25T08:24:17Z</time>
      </trkpt>
      <trkpt lat="48.42677" lon="2.61461">
        <ele>115.4956055</ele>
        <time>2012-03-25T08:24:25Z</time>
      </trkpt>
      <trkpt lat="48.42679" lon="2.61425">
        <ele>115.9761963</ele>
        <time>2012-03-25T08:24:31Z</time>
      </trkpt>
      <trkpt lat="48.42688" lon="2.61365">
        <ele>114.0535889</ele>
        <time>2012-03-25T08:24:40Z</time>
      </trkpt>
      <trkpt lat="48.42711" lon="2.61301">
        <ele>117.4182129</ele>
        <time>2012-03-25T08:24:55Z</time>
      </trkpt>
      <trkpt lat="48.42729" lon="2.61246">
        <ele>120.7828369</ele>
        <time>2012-03-25T08:25:11Z</time>
      </trkpt>
      <trkpt lat="48.42743" lon="2.61201">
        <ele>119.3408203</ele>
        <time>2012-03-25T08:25:26Z</time>
      </trkpt>
      <trkpt lat="48.42751" lon="2.61143">
        <ele>124.1473389</ele>
        <time>2012-03-25T08:25:43Z</time>
      </trkpt>
      <trkpt lat="48.4276" lon="2.61083">
        <ele>121.7441406</ele>
        <time>2012-03-25T08:25:56Z</time>
      </trkpt>
      <trkpt lat="48.42756" lon="2.61024">
        <ele>120.302124</ele>
        <time>2012-03-25T08:26:09Z</time>
      </trkpt>
      <trkpt lat="48.42759" lon="2.60983">
        <ele>126.0699463</ele>
        <time>2012-03-25T08:26:21Z</time>
      </trkpt>
      <trkpt lat="48.42777" lon="2.60951">
        <ele>128.9541016</ele>
        <time>2012-03-25T08:26:34Z</time>
      </trkpt>
      <trkpt lat="48.42796" lon="2.60897">
        <ele>131.3572998</ele>
        <time>2012-03-25T08:26:48Z</time>
      </trkpt>
      <trkpt lat="48.42802" lon="2.60833">
        <ele>132.7993164</ele>
        <time>2012-03-25T08:27:00Z</time>
      </trkpt>
      <trkpt lat="48.42794" lon="2.60752">
        <ele>131.3572998</ele>
        <time>2012-03-25T08:27:13Z</time>
      </trkpt>
      <trkpt lat="48.42785" lon="2.60671">
        <ele>130.3959961</ele>
        <time>2012-03-25T08:27:25Z</time>
      </trkpt>
      <trkpt lat="48.42773" lon="2.60566">
        <ele>129.4346924</ele>
        <time>2012-03-25T08:27:39Z</time>
      </trkpt>
      <trkpt lat="48.42787" lon="2.60544">
        <ele>127.9925537</ele>
        <time>2012-03-25T08:27:45Z</time>
      </trkpt>
      <trkpt lat="48.4283" lon="2.60519">
        <ele>126.5506592</ele>
        <time>2012-03-25T08:27:57Z</time>
      </trkpt>
      <trkpt lat="48.42888" lon="2.60489">
        <ele>120.7828369</ele>
        <time>2012-03-25T08:28:08Z</time>
      </trkpt>
      <trkpt lat="48.42954" lon="2.60455">
        <ele>120.7828369</ele>
        <time>2012-03-25T08:28:19Z</time>
      </trkpt>
      <trkpt lat="48.43028" lon="2.60418">
        <ele>120.7828369</ele>
        <time>2012-03-25T08:28:34Z</time>
      </trkpt>
      <trkpt lat="48.43048" lon="2.60408">
        <ele>120.302124</ele>
        <time>2012-03-25T08:28:39Z</time>
      </trkpt>
      <trkpt lat="48.43119" lon="2.60412">
        <ele>112.1309814</ele>
        <time>2012-03-25T08:28:51Z</time>
      </trkpt>
      <trkpt lat="48.43192" lon="2.60426">
        <ele>100.5950928</ele>
        <time>2012-03-25T08:28:59Z</time>
      </trkpt>
      <trkpt lat="48.43223" lon="2.60431">
        <ele>101.0756836</ele>
        <time>2012-03-25T08:29:04Z</time>
      </trkpt>
      <trkpt lat="48.43223" lon="2.60447">
        <ele>102.5177002</ele>
        <time>2012-03-25T08:29:09Z</time>
      </trkpt>
      <trkpt lat="48.43203" lon="2.60471">
        <ele>102.998291</ele>
        <time>2012-03-25T08:29:20Z</time>
      </trkpt>
      <trkpt lat="48.43167" lon="2.6051">
        <ele>107.3243408</ele>
        <time>2012-03-25T08:29:36Z</time>
      </trkpt>
      <trkpt lat="48.43129" lon="2.60551">
        <ele>110.6888428</ele>
        <time>2012-03-25T08:29:54Z</time>
      </trkpt>
      <trkpt lat="48.43111" lon="2.60571">
        <ele>115.0148926</ele>
        <time>2012-03-25T08:30:06Z</time>
      </trkpt>
      <trkpt lat="48.43098" lon="2.60605">
        <ele>118.8601074</ele>
        <time>2012-03-25T08:30:20Z</time>
      </trkpt>
      <trkpt lat="48.43096" lon="2.60619">
        <ele>121.2635498</ele>
        <time>2012-03-25T08:30:26Z</time>
      </trkpt>
      <trkpt lat="48.43095" lon="2.60625">
        <ele>121.7441406</ele>
        <time>2012-03-25T08:30:29Z</time>
      </trkpt>
      <trkpt lat="48.43092" lon="2.60644">
        <ele>123.1861572</ele>
        <time>2012-03-25T08:30:37Z</time>
      </trkpt>
      <trkpt lat="48.43091" lon="2.60653">
        <ele>123.1861572</ele>
        <time>2012-03-25T08:30:40Z</time>
      </trkpt>
      <trkpt lat="48.4309" lon="2.60657">
        <ele>122.7054443</ele>
        <time>2012-03-25T08:30:42Z</time>
      </trkpt>
      <trkpt lat="48.43086" lon="2.6069">
        <ele>124.1473389</ele>
        <time>2012-03-25T08:30:56Z</time>
      </trkpt>
      <trkpt lat="48.43086" lon="2.60692">
        <ele>124.1473389</ele>
        <time>2012-03-25T08:30:57Z</time>
      </trkpt>
      <trkpt lat="48.43101" lon="2.60729">
        <ele>125.1087646</ele>
        <time>2012-03-25T08:31:12Z</time>
      </trkpt>
      <trkpt lat="48.43123" lon="2.60787">
        <ele>126.5506592</ele>
        <time>2012-03-25T08:31:27Z</time>
      </trkpt>
      <trkpt lat="48.43148" lon="2.60841">
        <ele>128.4733887</ele>
        <time>2012-03-25T08:31:40Z</time>
      </trkpt>
      <trkpt lat="48.43192" lon="2.60939">
        <ele>126.5506592</ele>
        <time>2012-03-25T08:31:58Z</time>
      </trkpt>
      <trkpt lat="48.43198" lon="2.60952">
        <ele>125.5893555</ele>
        <time>2012-03-25T08:32:00Z</time>
      </trkpt>
      <trkpt lat="48.43207" lon="2.61033">
        <ele>128.4733887</ele>
        <time>2012-03-25T08:32:13Z</time>
      </trkpt>
      <trkpt lat="48.43215" lon="2.61135">
        <ele>129.4346924</ele>
        <time>2012-03-25T08:32:31Z</time>
      </trkpt>
      <trkpt lat="48.43224" lon="2.61265">
        <ele>131.3572998</ele>
        <time>2012-03-25T08:32:53Z</time>
      </trkpt>
      <trkpt lat="48.43232" lon="2.61362">
        <ele>131.3572998</ele>
        <time>2012-03-25T08:33:09Z</time>
      </trkpt>
      <trkpt lat="48.43236" lon="2.61435">
        <ele>131.3572998</ele>
        <time>2012-03-25T08:33:21Z</time>
      </trkpt>
      <trkpt lat="48.43243" lon="2.61513">
        <ele>129.9152832</ele>
        <time>2012-03-25T08:33:33Z</time>
      </trkpt>
      <trkpt lat="48.43254" lon="2.61642">
        <ele>131.3572998</ele>
        <time>2012-03-25T08:33:51Z</time>
      </trkpt>
      <trkpt lat="48.43266" lon="2.61794">
        <ele>131.3572998</ele>
        <time>2012-03-25T08:34:11Z</time>
      </trkpt>
      <trkpt lat="48.43272" lon="2.61878">
        <ele>131.8378906</ele>
        <time>2012-03-25T08:34:23Z</time>
      </trkpt>
      <trkpt lat="48.43278" lon="2.6196">
        <ele>133.2799072</ele>
        <time>2012-03-25T08:34:38Z</time>
      </trkpt>
      <trkpt lat="48.43281" lon="2.6204">
        <ele>135.2025146</ele>
        <time>2012-03-25T08:34:53Z</time>
      </trkpt>
      <trkpt lat="48.43272" lon="2.62103">
        <ele>136.6446533</ele>
        <time>2012-03-25T08:35:03Z</time>
      </trkpt>
      <trkpt lat="48.43266" lon="2.62141">
        <ele>136.1639404</ele>
        <time>2012-03-25T08:35:08Z</time>
      </trkpt>
      <trkpt lat="48.43247" lon="2.6226">
        <ele>130.876709</ele>
        <time>2012-03-25T08:35:20Z</time>
      </trkpt>
      <trkpt lat="48.43236" lon="2.62327">
        <ele>129.9152832</ele>
        <time>2012-03-25T08:35:28Z</time>
      </trkpt>
      <trkpt lat="48.4323" lon="2.62329">
        <ele>130.3959961</ele>
        <time>2012-03-25T08:35:32Z</time>
      </trkpt>
      <trkpt lat="48.43225" lon="2.62324">
        <ele>130.876709</ele>
        <time>2012-03-25T08:35:35Z</time>
      </trkpt>
      <trkpt lat="48.43208" lon="2.62299">
        <ele>132.3186035</ele>
        <time>2012-03-25T08:35:49Z</time>
      </trkpt>
      <trkpt lat="48.43191" lon="2.62279">
        <ele>133.760498</ele>
        <time>2012-03-25T08:36:01Z</time>
      </trkpt>
      <trkpt lat="48.43181" lon="2.62277">
        <ele>133.2799072</ele>
        <time>2012-03-25T08:36:06Z</time>
      </trkpt>
      <trkpt lat="48.43163" lon="2.62276">
        <ele>136.1639404</ele>
        <time>2012-03-25T08:36:15Z</time>
      </trkpt>
      <trkpt lat="48.43159" lon="2.62271">
        <ele>137.1252441</ele>
        <time>2012-03-25T08:36:19Z</time>
      </trkpt>
      <trkpt lat="48.43148" lon="2.62261">
        <ele>135.2025146</ele>
        <time>2012-03-25T08:36:27Z</time>
      </trkpt>
      <trkpt lat="48.4314" lon="2.62253">
        <ele>134.2412109</ele>
        <time>2012-03-25T08:36:32Z</time>
      </trkpt>
      <trkpt lat="48.43113" lon="2.62224">
        <ele>129.9152832</ele>
        <time>2012-03-25T08:36:45Z</time>
      </trkpt>
      <trkpt lat="48.4307" lon="2.62186">
        <ele>132.7993164</ele>
        <time>2012-03-25T08:36:59Z</time>
      </trkpt>
      <trkpt lat="48.4306" lon="2.62175">
        <ele>133.760498</ele>
        <time>2012-03-25T08:37:02Z</time>
      </trkpt>
      <trkpt lat="48.4298" lon="2.62099">
        <ele>134.7219238</ele>
        <time>2012-03-25T08:37:23Z</time>
      </trkpt>
      <trkpt lat="48.42922" lon="2.6204">
        <ele>131.8378906</ele>
        <time>2012-03-25T08:37:40Z</time>
      </trkpt>
      <trkpt lat="48.42908" lon="2.62051">
        <ele>132.3186035</ele>
        <time>2012-03-25T08:37:45Z</time>
      </trkpt>
      <trkpt lat="48.42902" lon="2.62081">
        <ele>134.2412109</ele>
        <time>2012-03-25T08:37:52Z</time>
      </trkpt>
      <trkpt lat="48.429" lon="2.62092">
        <ele>135.2025146</ele>
        <time>2012-03-25T08:37:54Z</time>
      </trkpt>
      <trkpt lat="48.42886" lon="2.62193">
        <ele>133.2799072</ele>
        <time>2012-03-25T08:38:08Z</time>
      </trkpt>
      <trkpt lat="48.42876" lon="2.62292">
        <ele>133.2799072</ele>
        <time>2012-03-25T08:38:20Z</time>
      </trkpt>
      <trkpt lat="48.42862" lon="2.62401">
        <ele>134.2412109</ele>
        <time>2012-03-25T08:38:33Z</time>
      </trkpt>
      <trkpt lat="48.42861" lon="2.62409">
        <ele>134.7219238</ele>
        <time>2012-03-25T08:38:34Z</time>
      </trkpt>
      <trkpt lat="48.42859" lon="2.62426">
        <ele>135.2025146</ele>
        <time>2012-03-25T08:38:36Z</time>
      </trkpt>
      <trkpt lat="48.42846" lon="2.6253">
        <ele>134.2412109</ele>
        <time>2012-03-25T08:38:48Z</time>
      </trkpt>
      <trkpt lat="48.42834" lon="2.62624">
        <ele>132.7993164</ele>
        <time>2012-03-25T08:39:00Z</time>
      </trkpt>
      <trkpt lat="48.4283" lon="2.62652">
        <ele>133.760498</ele>
        <time>2012-03-25T08:39:04Z</time>
      </trkpt>
      <trkpt lat="48.4282" lon="2.62732">
        <ele>134.7219238</ele>
        <time>2012-03-25T08:39:15Z</time>
      </trkpt>
      <trkpt lat="48.4281" lon="2.62813">
        <ele>136.6446533</ele>
        <time>2012-03-25T08:39:26Z</time>
      </trkpt>
      <trkpt lat="48.42801" lon="2.62883">
        <ele>136.1639404</ele>
        <time>2012-03-25T08:39:37Z</time>
      </trkpt>
      <trkpt lat="48.42796" lon="2.62937">
        <ele>136.6446533</ele>
        <time>2012-03-25T08:39:44Z</time>
      </trkpt>
      <trkpt lat="48.42791" lon="2.62973">
        <ele>135.2025146</ele>
        <time>2012-03-25T08:39:48Z</time>
      </trkpt>
      <trkpt lat="48.42783" lon="2.63023">
        <ele>132.7993164</ele>
        <time>2012-03-25T08:39:54Z</time>
      </trkpt>
      <trkpt lat="48.42775" lon="2.63117">
        <ele>130.876709</ele>
        <time>2012-03-25T08:40:06Z</time>
      </trkpt>
      <trkpt lat="48.42769" lon="2.63163">
        <ele>131.3572998</ele>
        <time>2012-03-25T08:40:12Z</time>
      </trkpt>
      <trkpt lat="48.42758" lon="2.63242">
        <ele>132.7993164</ele>
        <time>2012-03-25T08:40:22Z</time>
      </trkpt>
      <trkpt lat="48.42751" lon="2.63303">
        <ele>134.7219238</ele>
        <time>2012-03-25T08:40:30Z</time>
      </trkpt>
      <trkpt lat="48.42749" lon="2.6332">
        <ele>134.7219238</ele>
        <time>2012-03-25T08:40:32Z</time>
      </trkpt>
      <trkpt lat="48.42748" lon="2.63345">
        <ele>133.760498</ele>
        <time>2012-03-25T08:40:35Z</time>
      </trkpt>
      <trkpt lat="48.42735" lon="2.6345">
        <ele>135.2025146</ele>
        <time>2012-03-25T08:40:48Z</time>
      </trkpt>
      <trkpt lat="48.42724" lon="2.6353">
        <ele>136.1639404</ele>
        <time>2012-03-25T08:40:58Z</time>
      </trkpt>
      <trkpt lat="48.42721" lon="2.63553">
        <ele>136.1639404</ele>
        <time>2012-03-25T08:41:01Z</time>
      </trkpt>
      <trkpt lat="48.42705" lon="2.63661">
        <ele>135.6831055</ele>
        <time>2012-03-25T08:41:15Z</time>
      </trkpt>
      <trkpt lat="48.42698" lon="2.63717">
        <ele>135.2025146</ele>
        <time>2012-03-25T08:41:22Z</time>
      </trkpt>
      <trkpt lat="48.42688" lon="2.63798">
        <ele>135.2025146</ele>
        <time>2012-03-25T08:41:33Z</time>
      </trkpt>
      <trkpt lat="48.4268" lon="2.63867">
        <ele>135.2025146</ele>
        <time>2012-03-25T08:41:42Z</time>
      </trkpt>
      <trkpt lat="48.42672" lon="2.63927">
        <ele>135.6831055</ele>
        <time>2012-03-25T08:41:49Z</time>
      </trkpt>
      <trkpt lat="48.42668" lon="2.6397">
        <ele>135.6831055</ele>
        <time>2012-03-25T08:41:55Z</time>
      </trkpt>
      <trkpt lat="48.42658" lon="2.64062">
        <ele>132.3186035</ele>
        <time>2012-03-25T08:42:05Z</time>
      </trkpt>
      <trkpt lat="48.42656" lon="2.64091">
        <ele>133.2799072</ele>
        <time>2012-03-25T08:42:08Z</time>
      </trkpt>
      <trkpt lat="48.42642" lon="2.6419">
        <ele>135.2025146</ele>
        <time>2012-03-25T08:42:21Z</time>
      </trkpt>
      <trkpt lat="48.42639" lon="2.64215">
        <ele>136.1639404</ele>
        <time>2012-03-25T08:42:24Z</time>
      </trkpt>
      <trkpt lat="48.42628" lon="2.64294">
        <ele>139.0478516</ele>
        <time>2012-03-25T08:42:34Z</time>
      </trkpt>
      <trkpt lat="48.42619" lon="2.64373">
        <ele>142.8930664</ele>
        <time>2012-03-25T08:42:44Z</time>
      </trkpt>
      <trkpt lat="48.42616" lon="2.64395">
        <ele>144.8157959</ele>
        <time>2012-03-25T08:42:47Z</time>
      </trkpt>
      <trkpt lat="48.42612" lon="2.64427">
        <ele>143.8543701</ele>
        <time>2012-03-25T08:42:50Z</time>
      </trkpt>
      <trkpt lat="48.42599" lon="2.64527">
        <ele>140.970459</ele>
        <time>2012-03-25T08:43:00Z</time>
      </trkpt>
      <trkpt lat="48.42593" lon="2.64567">
        <ele>137.605835</ele>
        <time>2012-03-25T08:43:04Z</time>
      </trkpt>
      <trkpt lat="48.4258" lon="2.6469">
        <ele>133.2799072</ele>
        <time>2012-03-25T08:43:15Z</time>
      </trkpt>
      <trkpt lat="48.42575" lon="2.64708">
        <ele>129.9152832</ele>
        <time>2012-03-25T08:43:18Z</time>
      </trkpt>
      <trkpt lat="48.4256" lon="2.64698">
        <ele>125.1087646</ele>
        <time>2012-03-25T08:43:23Z</time>
      </trkpt>
      <trkpt lat="48.42515" lon="2.64617">
        <ele>119.3408203</ele>
        <time>2012-03-25T08:43:34Z</time>
      </trkpt>
      <trkpt lat="48.42512" lon="2.64613">
        <ele>118.3793945</ele>
        <time>2012-03-25T08:43:35Z</time>
      </trkpt>
      <trkpt lat="48.42499" lon="2.64591">
        <ele>117.8988037</ele>
        <time>2012-03-25T08:43:38Z</time>
      </trkpt>
      <trkpt lat="48.42471" lon="2.64541">
        <ele>116.4567871</ele>
        <time>2012-03-25T08:43:45Z</time>
      </trkpt>
      <trkpt lat="48.42459" lon="2.64524">
        <ele>115.0148926</ele>
        <time>2012-03-25T08:43:48Z</time>
      </trkpt>
      <trkpt lat="48.42442" lon="2.64485">
        <ele>113.572998</ele>
        <time>2012-03-25T08:43:53Z</time>
      </trkpt>
      <trkpt lat="48.42421" lon="2.64456">
        <ele>113.572998</ele>
        <time>2012-03-25T08:43:58Z</time>
      </trkpt>
      <trkpt lat="48.42376" lon="2.6441">
        <ele>113.572998</ele>
        <time>2012-03-25T08:44:11Z</time>
      </trkpt>
      <trkpt lat="48.42345" lon="2.64386">
        <ele>114.5341797</ele>
        <time>2012-03-25T08:44:23Z</time>
      </trkpt>
      <trkpt lat="48.42321" lon="2.6437">
        <ele>111.1695557</ele>
        <time>2012-03-25T08:44:33Z</time>
      </trkpt>
      <trkpt lat="48.4232" lon="2.64367">
        <ele>110.6888428</ele>
        <time>2012-03-25T08:44:34Z</time>
      </trkpt>
      <trkpt lat="48.42301" lon="2.64349">
        <ele>114.5341797</ele>
        <time>2012-03-25T08:44:46Z</time>
      </trkpt>
      <trkpt lat="48.42298" lon="2.64348">
        <ele>114.5341797</ele>
        <time>2012-03-25T08:44:48Z</time>
      </trkpt>
      <trkpt lat="48.42297" lon="2.64346">
        <ele>115.4956055</ele>
        <time>2012-03-25T08:44:50Z</time>
      </trkpt>
      <trkpt lat="48.42281" lon="2.6433">
        <ele>119.3408203</ele>
        <time>2012-03-25T08:45:01Z</time>
      </trkpt>
      <trkpt lat="48.42256" lon="2.64312">
        <ele>124.6280518</ele>
        <time>2012-03-25T08:45:18Z</time>
      </trkpt>
      <trkpt lat="48.4223" lon="2.64293">
        <ele>125.1087646</ele>
        <time>2012-03-25T08:45:33Z</time>
      </trkpt>
      <trkpt lat="48.42194" lon="2.64263">
        <ele>129.9152832</ele>
        <time>2012-03-25T08:45:50Z</time>
      </trkpt>
      <trkpt lat="48.42146" lon="2.64224">
        <ele>131.8378906</ele>
        <time>2012-03-25T08:46:05Z</time>
      </trkpt>
      <trkpt lat="48.42109" lon="2.64195">
        <ele>136.1639404</ele>
        <time>2012-03-25T08:46:17Z</time>
      </trkpt>
      <trkpt lat="48.42085" lon="2.64172">
        <ele>136.1639404</ele>
        <time>2012-03-25T08:46:24Z</time>
      </trkpt>
      <trkpt lat="48.4205" lon="2.64147">
        <ele>134.2412109</ele>
        <time>2012-03-25T08:46:33Z</time>
      </trkpt>
      <trkpt lat="48.42057" lon="2.64127">
        <ele>136.1639404</ele>
        <time>2012-03-25T08:46:40Z</time>
      </trkpt>
      <trkpt lat="48.42096" lon="2.64106">
        <ele>135.2025146</ele>
        <time>2012-03-25T08:46:51Z</time>
      </trkpt>
      <trkpt lat="48.42154" lon="2.64069">
        <ele>132.3186035</ele>
        <time>2012-03-25T08:47:01Z</time>
      </trkpt>
      <trkpt lat="48.42222" lon="2.64025">
        <ele>123.666748</ele>
        <time>2012-03-25T08:47:10Z</time>
      </trkpt>
      <trkpt lat="48.42274" lon="2.63996">
        <ele>114.5341797</ele>
        <time>2012-03-25T08:47:17Z</time>
      </trkpt>
      <trkpt lat="48.42324" lon="2.63963">
        <ele>106.3630371</ele>
        <time>2012-03-25T08:47:24Z</time>
      </trkpt>
      <trkpt lat="48.42343" lon="2.63935">
        <ele>107.3243408</ele>
        <time>2012-03-25T08:47:28Z</time>
      </trkpt>
      <trkpt lat="48.42393" lon="2.63879">
        <ele>112.1309814</ele>
        <time>2012-03-25T08:47:42Z</time>
      </trkpt>
      <trkpt lat="48.42432" lon="2.63838">
        <ele>116.9375</ele>
        <time>2012-03-25T08:47:59Z</time>
      </trkpt>
      <trkpt lat="48.42439" lon="2.63829">
        <ele>119.8214111</ele>
        <time>2012-03-25T08:48:03Z</time>
      </trkpt>
      <trkpt lat="48.42443" lon="2.63811">
        <ele>122.2247314</ele>
        <time>2012-03-25T08:48:13Z</time>
      </trkpt>
      <trkpt lat="48.42445" lon="2.63805">
        <ele>122.2247314</ele>
        <time>2012-03-25T08:48:16Z</time>
      </trkpt>
      <trkpt lat="48.4245" lon="2.63772">
        <ele>127.0313721</ele>
        <time>2012-03-25T08:48:32Z</time>
      </trkpt>
      <trkpt lat="48.42455" lon="2.63742">
        <ele>129.4346924</ele>
        <time>2012-03-25T08:48:46Z</time>
      </trkpt>
      <trkpt lat="48.4246" lon="2.6371">
        <ele>131.3572998</ele>
        <time>2012-03-25T08:48:59Z</time>
      </trkpt>
      <trkpt lat="48.42464" lon="2.63683">
        <ele>133.2799072</ele>
        <time>2012-03-25T08:49:10Z</time>
      </trkpt>
      <trkpt lat="48.42471" lon="2.63637">
        <ele>135.6831055</ele>
        <time>2012-03-25T08:49:24Z</time>
      </trkpt>
      <trkpt lat="48.42479" lon="2.63593">
        <ele>134.2412109</ele>
        <time>2012-03-25T08:49:36Z</time>
      </trkpt>
      <trkpt lat="48.42493" lon="2.63515">
        <ele>132.3186035</ele>
        <time>2012-03-25T08:49:50Z</time>
      </trkpt>
      <trkpt lat="48.42508" lon="2.63427">
        <ele>129.9152832</ele>
        <time>2012-03-25T08:50:03Z</time>
      </trkpt>
      <trkpt lat="48.42515" lon="2.63347">
        <ele>130.876709</ele>
        <time>2012-03-25T08:50:15Z</time>
      </trkpt>
      <trkpt lat="48.42513" lon="2.63302">
        <ele>131.3572998</ele>
        <time>2012-03-25T08:50:23Z</time>
      </trkpt>
      <trkpt lat="48.42508" lon="2.6323">
        <ele>129.4346924</ele>
        <time>2012-03-25T08:50:33Z</time>
      </trkpt>
      <trkpt lat="48.42505" lon="2.63165">
        <ele>125.1087646</ele>
        <time>2012-03-25T08:50:39Z</time>
      </trkpt>
      <trkpt lat="48.42505" lon="2.63087">
        <ele>125.5893555</ele>
        <time>2012-03-25T08:50:46Z</time>
      </trkpt>
      <trkpt lat="48.42504" lon="2.63038">
        <ele>127.5119629</ele>
        <time>2012-03-25T08:50:53Z</time>
      </trkpt>
      <trkpt lat="48.42483" lon="2.63027">
        <ele>125.5893555</ele>
        <time>2012-03-25T08:50:59Z</time>
      </trkpt>
      <trkpt lat="48.42477" lon="2.63029">
        <ele>125.1087646</ele>
        <time>2012-03-25T08:51:00Z</time>
      </trkpt>
      <trkpt lat="48.42401" lon="2.63034">
        <ele>115.9761963</ele>
        <time>2012-03-25T08:51:11Z</time>
      </trkpt>
      <trkpt lat="48.42299" lon="2.63056">
        <ele>110.208252</ele>
        <time>2012-03-25T08:51:21Z</time>
      </trkpt>
      <trkpt lat="48.42291" lon="2.63058">
        <ele>110.208252</ele>
        <time>2012-03-25T08:51:22Z</time>
      </trkpt>
      <trkpt lat="48.42234" lon="2.63062">
        <ele>103.9597168</ele>
        <time>2012-03-25T08:51:29Z</time>
      </trkpt>
      <trkpt lat="48.4222" lon="2.6305">
        <ele>104.9210205</ele>
        <time>2012-03-25T08:51:32Z</time>
      </trkpt>
      <trkpt lat="48.42184" lon="2.63021">
        <ele>105.4017334</ele>
        <time>2012-03-25T08:51:40Z</time>
      </trkpt>
      <trkpt lat="48.42156" lon="2.63">
        <ele>105.8824463</ele>
        <time>2012-03-25T08:51:46Z</time>
      </trkpt>
      <trkpt lat="48.42092" lon="2.62952">
        <ele>107.8050537</ele>
        <time>2012-03-25T08:52:02Z</time>
      </trkpt>
      <trkpt lat="48.42066" lon="2.6293">
        <ele>108.7662354</ele>
        <time>2012-03-25T08:52:12Z</time>
      </trkpt>
      <trkpt lat="48.4204" lon="2.6291">
        <ele>108.7662354</ele>
        <time>2012-03-25T08:52:22Z</time>
      </trkpt>
      <trkpt lat="48.42003" lon="2.62883">
        <ele>111.6502686</ele>
        <time>2012-03-25T08:52:40Z</time>
      </trkpt>
      <trkpt lat="48.42001" lon="2.62882">
        <ele>111.6502686</ele>
        <time>2012-03-25T08:52:41Z</time>
      </trkpt>
      <trkpt lat="48.41987" lon="2.6287">
        <ele>112.6115723</ele>
        <time>2012-03-25T08:52:53Z</time>
      </trkpt>
      <trkpt lat="48.41983" lon="2.62868">
        <ele>113.572998</ele>
        <time>2012-03-25T08:52:56Z</time>
      </trkpt>
      <trkpt lat="48.41966" lon="2.62855">
        <ele>118.3793945</ele>
        <time>2012-03-25T08:53:08Z</time>
      </trkpt>
      <trkpt lat="48.41953" lon="2.62883">
        <ele>123.666748</ele>
        <time>2012-03-25T08:53:23Z</time>
      </trkpt>
      <trkpt lat="48.4194" lon="2.62901">
        <ele>126.0699463</ele>
        <time>2012-03-25T08:53:37Z</time>
      </trkpt>
      <trkpt lat="48.41918" lon="2.62916">
        <ele>126.5506592</ele>
        <time>2012-03-25T08:53:57Z</time>
      </trkpt>
      <trkpt lat="48.41916" lon="2.62916">
        <ele>127.0313721</ele>
        <time>2012-03-25T08:53:59Z</time>
      </trkpt>
      <trkpt lat="48.41889" lon="2.62892">
        <ele>126.5506592</ele>
        <time>2012-03-25T08:54:19Z</time>
      </trkpt>
      <trkpt lat="48.41876" lon="2.62876">
        <ele>126.5506592</ele>
        <time>2012-03-25T08:54:28Z</time>
      </trkpt>
      <trkpt lat="48.41845" lon="2.62865">
        <ele>130.876709</ele>
        <time>2012-03-25T08:54:43Z</time>
      </trkpt>
      <trkpt lat="48.41801" lon="2.62848">
        <ele>132.7993164</ele>
        <time>2012-03-25T08:54:57Z</time>
      </trkpt>
      <trkpt lat="48.41763" lon="2.62829">
        <ele>133.2799072</ele>
        <time>2012-03-25T08:55:07Z</time>
      </trkpt>
      <trkpt lat="48.41751" lon="2.62823">
        <ele>133.760498</ele>
        <time>2012-03-25T08:55:10Z</time>
      </trkpt>
      <trkpt lat="48.41733" lon="2.62817">
        <ele>132.3186035</ele>
        <time>2012-03-25T08:55:14Z</time>
      </trkpt>
      <trkpt lat="48.41709" lon="2.62807">
        <ele>129.4346924</ele>
        <time>2012-03-25T08:55:19Z</time>
      </trkpt>
      <trkpt lat="48.41686" lon="2.62797">
        <ele>131.3572998</ele>
        <time>2012-03-25T08:55:23Z</time>
      </trkpt>
      <trkpt lat="48.41654" lon="2.62787">
        <ele>127.5119629</ele>
        <time>2012-03-25T08:55:28Z</time>
      </trkpt>
      <trkpt lat="48.41642" lon="2.62778">
        <ele>125.5893555</ele>
        <time>2012-03-25T08:55:30Z</time>
      </trkpt>
      <trkpt lat="48.41606" lon="2.62736">
        <ele>118.3793945</ele>
        <time>2012-03-25T08:55:36Z</time>
      </trkpt>
      <trkpt lat="48.41587" lon="2.62699">
        <ele>112.6115723</ele>
        <time>2012-03-25T08:55:40Z</time>
      </trkpt>
      <trkpt lat="48.41584" lon="2.6264">
        <ele>105.4017334</ele>
        <time>2012-03-25T08:55:46Z</time>
      </trkpt>
      <trkpt lat="48.4159" lon="2.62621">
        <ele>103.9597168</ele>
        <time>2012-03-25T08:55:48Z</time>
      </trkpt>
      <trkpt lat="48.41598" lon="2.62605">
        <ele>100.114502</ele>
        <time>2012-03-25T08:55:50Z</time>
      </trkpt>
      <trkpt lat="48.41592" lon="2.62555">
        <ele>98.6724854</ele>
        <time>2012-03-25T08:55:56Z</time>
      </trkpt>
      <trkpt lat="48.41566" lon="2.62485">
        <ele>102.5177002</ele>
        <time>2012-03-25T08:56:08Z</time>
      </trkpt>
      <trkpt lat="48.41535" lon="2.6245">
        <ele>104.9210205</ele>
        <time>2012-03-25T08:56:23Z</time>
      </trkpt>
      <trkpt lat="48.41503" lon="2.62417">
        <ele>108.2856445</ele>
        <time>2012-03-25T08:56:42Z</time>
      </trkpt>
      <trkpt lat="48.41482" lon="2.62398">
        <ele>111.6502686</ele>
        <time>2012-03-25T08:56:59Z</time>
      </trkpt>
      <trkpt lat="48.41474" lon="2.62389">
        <ele>112.6115723</ele>
        <time>2012-03-25T08:57:06Z</time>
      </trkpt>
      <trkpt lat="48.41454" lon="2.6237">
        <ele>115.9761963</ele>
        <time>2012-03-25T08:57:22Z</time>
      </trkpt>
      <trkpt lat="48.41443" lon="2.62361">
        <ele>117.4182129</ele>
        <time>2012-03-25T08:57:30Z</time>
      </trkpt>
      <trkpt lat="48.41436" lon="2.62351">
        <ele>117.4182129</ele>
        <time>2012-03-25T08:57:37Z</time>
      </trkpt>
      <trkpt lat="48.41426" lon="2.62345">
        <ele>119.3408203</ele>
        <time>2012-03-25T08:57:44Z</time>
      </trkpt>
      <trkpt lat="48.41404" lon="2.62319">
        <ele>123.1861572</ele>
        <time>2012-03-25T08:58:02Z</time>
      </trkpt>
      <trkpt lat="48.41386" lon="2.62299">
        <ele>123.1861572</ele>
        <time>2012-03-25T08:58:14Z</time>
      </trkpt>
      <trkpt lat="48.41348" lon="2.62267">
        <ele>124.6280518</ele>
        <time>2012-03-25T08:58:30Z</time>
      </trkpt>
      <trkpt lat="48.4133" lon="2.6225">
        <ele>127.0313721</ele>
        <time>2012-03-25T08:58:37Z</time>
      </trkpt>
      <trkpt lat="48.41286" lon="2.62205">
        <ele>129.4346924</ele>
        <time>2012-03-25T08:58:52Z</time>
      </trkpt>
      <trkpt lat="48.41269" lon="2.62182">
        <ele>127.5119629</ele>
        <time>2012-03-25T08:58:58Z</time>
      </trkpt>
      <trkpt lat="48.41261" lon="2.62163">
        <ele>125.5893555</ele>
        <time>2012-03-25T08:59:01Z</time>
      </trkpt>
      <trkpt lat="48.41202" lon="2.62085">
        <ele>112.1309814</ele>
        <time>2012-03-25T08:59:11Z</time>
      </trkpt>
      <trkpt lat="48.41196" lon="2.62077">
        <ele>111.1695557</ele>
        <time>2012-03-25T08:59:12Z</time>
      </trkpt>
      <trkpt lat="48.4116" lon="2.61964">
        <ele>102.998291</ele>
        <time>2012-03-25T08:59:22Z</time>
      </trkpt>
      <trkpt lat="48.41127" lon="2.61853">
        <ele>97.2304688</ele>
        <time>2012-03-25T08:59:31Z</time>
      </trkpt>
      <trkpt lat="48.41116" lon="2.61823">
        <ele>97.2304688</ele>
        <time>2012-03-25T08:59:34Z</time>
      </trkpt>
      <trkpt lat="48.41109" lon="2.61774">
        <ele>95.7884521</ele>
        <time>2012-03-25T08:59:39Z</time>
      </trkpt>
      <trkpt lat="48.4113" lon="2.61663">
        <ele>91.9432373</ele>
        <time>2012-03-25T08:59:50Z</time>
      </trkpt>
      <trkpt lat="48.41149" lon="2.61557">
        <ele>88.5787354</ele>
        <time>2012-03-25T09:00:02Z</time>
      </trkpt>
      <trkpt lat="48.41159" lon="2.61513">
        <ele>88.0980225</ele>
        <time>2012-03-25T09:00:07Z</time>
      </trkpt>
      <trkpt lat="48.41162" lon="2.61477">
        <ele>88.0980225</ele>
        <time>2012-03-25T09:00:11Z</time>
      </trkpt>
      <trkpt lat="48.41153" lon="2.61378">
        <ele>88.5787354</ele>
        <time>2012-03-25T09:00:22Z</time>
      </trkpt>
      <trkpt lat="48.41142" lon="2.6128">
        <ele>87.6171875</ele>
        <time>2012-03-25T09:00:34Z</time>
      </trkpt>
      <trkpt lat="48.41137" lon="2.61205">
        <ele>86.6560059</ele>
        <time>2012-03-25T09:00:44Z</time>
      </trkpt>
      <trkpt lat="48.41124" lon="2.61083">
        <ele>85.6945801</ele>
        <time>2012-03-25T09:00:59Z</time>
      </trkpt>
      <trkpt lat="48.41122" lon="2.61059">
        <ele>84.2526855</ele>
        <time>2012-03-25T09:01:02Z</time>
      </trkpt>
      <trkpt lat="48.41122" lon="2.61045">
        <ele>84.2526855</ele>
        <time>2012-03-25T09:01:04Z</time>
      </trkpt>
      <trkpt lat="48.41116" lon="2.61019">
        <ele>84.2526855</ele>
        <time>2012-03-25T09:01:08Z</time>
      </trkpt>
      <trkpt lat="48.41116" lon="2.60987">
        <ele>84.7333984</ele>
        <time>2012-03-25T09:01:12Z</time>
      </trkpt>
      <trkpt lat="48.41137" lon="2.60944">
        <ele>83.2913818</ele>
        <time>2012-03-25T09:01:20Z</time>
      </trkpt>
      <trkpt lat="48.41176" lon="2.60932">
        <ele>82.810791</ele>
        <time>2012-03-25T09:01:28Z</time>
      </trkpt>
      <trkpt lat="48.41258" lon="2.60895">
        <ele>81.8493652</ele>
        <time>2012-03-25T09:01:43Z</time>
      </trkpt>
      <trkpt lat="48.41275" lon="2.60858">
        <ele>81.3687744</ele>
        <time>2012-03-25T09:01:49Z</time>
      </trkpt>
      <trkpt lat="48.41259" lon="2.60746">
        <ele>82.3300781</ele>
        <time>2012-03-25T09:02:03Z</time>
      </trkpt>
      <trkpt lat="48.41237" lon="2.60608">
        <ele>84.2526855</ele>
        <time>2012-03-25T09:02:23Z</time>
      </trkpt>
      <trkpt lat="48.41235" lon="2.60595">
        <ele>83.7719727</ele>
        <time>2012-03-25T09:02:25Z</time>
      </trkpt>
      <trkpt lat="48.41214" lon="2.60486">
        <ele>83.2913818</ele>
        <time>2012-03-25T09:02:40Z</time>
      </trkpt>
      <trkpt lat="48.41213" lon="2.60478">
        <ele>83.7719727</ele>
        <time>2012-03-25T09:02:41Z</time>
      </trkpt>
      <trkpt lat="48.4121" lon="2.60447">
        <ele>83.7719727</ele>
        <time>2012-03-25T09:02:45Z</time>
      </trkpt>
      <trkpt lat="48.41205" lon="2.60426">
        <ele>83.2913818</ele>
        <time>2012-03-25T09:02:48Z</time>
      </trkpt>
      <trkpt lat="48.412" lon="2.60398">
        <ele>82.810791</ele>
        <time>2012-03-25T09:02:52Z</time>
      </trkpt>
      <trkpt lat="48.41196" lon="2.60379">
        <ele>82.3300781</ele>
        <time>2012-03-25T09:02:55Z</time>
      </trkpt>
      <trkpt lat="48.41186" lon="2.60307">
        <ele>80.4074707</ele>
        <time>2012-03-25T09:03:04Z</time>
      </trkpt>
      <trkpt lat="48.41168" lon="2.60203">
        <ele>78.9654541</ele>
        <time>2012-03-25T09:03:19Z</time>
      </trkpt>
      <trkpt lat="48.41166" lon="2.60182">
        <ele>78.0040283</ele>
        <time>2012-03-25T09:03:22Z</time>
      </trkpt>
      <trkpt lat="48.41157" lon="2.60126">
        <ele>78.0040283</ele>
        <time>2012-03-25T09:03:30Z</time>
      </trkpt>
      <trkpt lat="48.41146" lon="2.60055">
        <ele>77.5234375</ele>
        <time>2012-03-25T09:03:40Z</time>
      </trkpt>
      <trkpt lat="48.41141" lon="2.60018">
        <ele>78.4847412</ele>
        <time>2012-03-25T09:03:45Z</time>
      </trkpt>
      <trkpt lat="48.41127" lon="2.59924">
        <ele>78.9654541</ele>
        <time>2012-03-25T09:04:00Z</time>
      </trkpt>
      <trkpt lat="48.41113" lon="2.59873">
        <ele>83.7719727</ele>
        <time>2012-03-25T09:04:13Z</time>
      </trkpt>
      <trkpt lat="48.41107" lon="2.5985">
        <ele>84.2526855</ele>
        <time>2012-03-25T09:04:23Z</time>
      </trkpt>
      <trkpt lat="48.41103" lon="2.59844">
        <ele>84.2526855</ele>
        <time>2012-03-25T09:04:34Z</time>
      </trkpt>
      <trkpt lat="48.41101" lon="2.59848">
        <ele>82.3300781</ele>
        <time>2012-03-25T09:04:50Z</time>
      </trkpt>
      <trkpt lat="48.411" lon="2.59842">
        <ele>81.8493652</ele>
        <time>2012-03-25T09:10:07Z</time>
      </trkpt>
      <trkpt lat="48.41092" lon="2.5984">
        <ele>80.4074707</ele>
        <time>2012-03-25T09:10:11Z</time>
      </trkpt>
      <trkpt lat="48.41073" lon="2.59831">
        <ele>80.8881836</ele>
        <time>2012-03-25T09:10:18Z</time>
      </trkpt>
      <trkpt lat="48.4103" lon="2.59812">
        <ele>80.4074707</ele>
        <time>2012-03-25T09:10:31Z</time>
      </trkpt>
      <trkpt lat="48.40977" lon="2.59793">
        <ele>82.3300781</ele>
        <time>2012-03-25T09:10:46Z</time>
      </trkpt>
      <trkpt lat="48.40941" lon="2.59781">
        <ele>87.6171875</ele>
        <time>2012-03-25T09:10:58Z</time>
      </trkpt>
      <trkpt lat="48.40934" lon="2.59787">
        <ele>90.5013428</ele>
        <time>2012-03-25T09:11:02Z</time>
      </trkpt>
      <trkpt lat="48.40927" lon="2.59845">
        <ele>93.8658447</ele>
        <time>2012-03-25T09:11:14Z</time>
      </trkpt>
      <trkpt lat="48.40911" lon="2.59902">
        <ele>94.3465576</ele>
        <time>2012-03-25T09:11:27Z</time>
      </trkpt>
      <trkpt lat="48.4089" lon="2.59964">
        <ele>95.3077393</ele>
        <time>2012-03-25T09:11:41Z</time>
      </trkpt>
      <trkpt lat="48.40879" lon="2.6">
        <ele>96.2692871</ele>
        <time>2012-03-25T09:11:50Z</time>
      </trkpt>
      <trkpt lat="48.40868" lon="2.6004">
        <ele>98.6724854</ele>
        <time>2012-03-25T09:11:59Z</time>
      </trkpt>
      <trkpt lat="48.40852" lon="2.60096">
        <ele>100.114502</ele>
        <time>2012-03-25T09:12:12Z</time>
      </trkpt>
      <trkpt lat="48.4084" lon="2.60159">
        <ele>102.0371094</ele>
        <time>2012-03-25T09:12:26Z</time>
      </trkpt>
      <trkpt lat="48.40832" lon="2.60225">
        <ele>105.8824463</ele>
        <time>2012-03-25T09:12:40Z</time>
      </trkpt>
      <trkpt lat="48.4083" lon="2.60235">
        <ele>105.8824463</ele>
        <time>2012-03-25T09:12:42Z</time>
      </trkpt>
      <trkpt lat="48.40825" lon="2.60312">
        <ele>108.2856445</ele>
        <time>2012-03-25T09:12:58Z</time>
      </trkpt>
      <trkpt lat="48.40817" lon="2.60383">
        <ele>105.8824463</ele>
        <time>2012-03-25T09:13:12Z</time>
      </trkpt>
      <trkpt lat="48.40807" lon="2.6045">
        <ele>106.3630371</ele>
        <time>2012-03-25T09:13:26Z</time>
      </trkpt>
      <trkpt lat="48.40801" lon="2.6052">
        <ele>106.8436279</ele>
        <time>2012-03-25T09:13:40Z</time>
      </trkpt>
      <trkpt lat="48.40793" lon="2.60595">
        <ele>110.6888428</ele>
        <time>2012-03-25T09:13:56Z</time>
      </trkpt>
      <trkpt lat="48.40788" lon="2.60655">
        <ele>108.7662354</ele>
        <time>2012-03-25T09:14:09Z</time>
      </trkpt>
      <trkpt lat="48.40784" lon="2.60705">
        <ele>109.2469482</ele>
        <time>2012-03-25T09:14:21Z</time>
      </trkpt>
      <trkpt lat="48.40778" lon="2.60767">
        <ele>105.8824463</ele>
        <time>2012-03-25T09:14:33Z</time>
      </trkpt>
      <trkpt lat="48.40772" lon="2.60861">
        <ele>104.9210205</ele>
        <time>2012-03-25T09:14:45Z</time>
      </trkpt>
      <trkpt lat="48.4077" lon="2.60882">
        <ele>105.4017334</ele>
        <time>2012-03-25T09:14:48Z</time>
      </trkpt>
      <trkpt lat="48.40763" lon="2.60964">
        <ele>108.7662354</ele>
        <time>2012-03-25T09:15:02Z</time>
      </trkpt>
      <trkpt lat="48.40758" lon="2.61024">
        <ele>113.0922852</ele>
        <time>2012-03-25T09:15:15Z</time>
      </trkpt>
      <trkpt lat="48.40754" lon="2.61096">
        <ele>121.2635498</ele>
        <time>2012-03-25T09:15:31Z</time>
      </trkpt>
      <trkpt lat="48.40754" lon="2.61121">
        <ele>123.666748</ele>
        <time>2012-03-25T09:15:37Z</time>
      </trkpt>
      <trkpt lat="48.4075" lon="2.61176">
        <ele>123.1861572</ele>
        <time>2012-03-25T09:15:49Z</time>
      </trkpt>
      <trkpt lat="48.40743" lon="2.61238">
        <ele>121.2635498</ele>
        <time>2012-03-25T09:16:03Z</time>
      </trkpt>
      <trkpt lat="48.40742" lon="2.61249">
        <ele>122.7054443</ele>
        <time>2012-03-25T09:16:06Z</time>
      </trkpt>
      <trkpt lat="48.40737" lon="2.61295">
        <ele>122.7054443</ele>
        <time>2012-03-25T09:16:18Z</time>
      </trkpt>
      <trkpt lat="48.40734" lon="2.61308">
        <ele>122.2247314</ele>
        <time>2012-03-25T09:16:21Z</time>
      </trkpt>
      <trkpt lat="48.40728" lon="2.61357">
        <ele>123.666748</ele>
        <time>2012-03-25T09:16:33Z</time>
      </trkpt>
      <trkpt lat="48.40711" lon="2.61422">
        <ele>121.7441406</ele>
        <time>2012-03-25T09:16:47Z</time>
      </trkpt>
      <trkpt lat="48.40695" lon="2.61457">
        <ele>122.7054443</ele>
        <time>2012-03-25T09:16:58Z</time>
      </trkpt>
      <trkpt lat="48.40677" lon="2.61481">
        <ele>127.5119629</ele>
        <time>2012-03-25T09:17:09Z</time>
      </trkpt>
      <trkpt lat="48.40654" lon="2.61488">
        <ele>128.9541016</ele>
        <time>2012-03-25T09:17:20Z</time>
      </trkpt>
      <trkpt lat="48.40623" lon="2.61491">
        <ele>132.7993164</ele>
        <time>2012-03-25T09:17:36Z</time>
      </trkpt>
      <trkpt lat="48.40603" lon="2.61492">
        <ele>132.7993164</ele>
        <time>2012-03-25T09:17:46Z</time>
      </trkpt>
      <trkpt lat="48.40598" lon="2.61491">
        <ele>135.2025146</ele>
        <time>2012-03-25T09:17:49Z</time>
      </trkpt>
      <trkpt lat="48.40566" lon="2.61483">
        <ele>135.2025146</ele>
        <time>2012-03-25T09:18:04Z</time>
      </trkpt>
      <trkpt lat="48.40528" lon="2.61465">
        <ele>135.6831055</ele>
        <time>2012-03-25T09:18:19Z</time>
      </trkpt>
      <trkpt lat="48.40479" lon="2.6144">
        <ele>137.1252441</ele>
        <time>2012-03-25T09:18:35Z</time>
      </trkpt>
      <trkpt lat="48.40437" lon="2.6142">
        <ele>138.0865479</ele>
        <time>2012-03-25T09:18:47Z</time>
      </trkpt>
      <trkpt lat="48.40406" lon="2.6141">
        <ele>140.4898682</ele>
        <time>2012-03-25T09:18:54Z</time>
      </trkpt>
      <trkpt lat="48.40389" lon="2.61406">
        <ele>140.0091553</ele>
        <time>2012-03-25T09:18:58Z</time>
      </trkpt>
      <trkpt lat="48.40371" lon="2.614">
        <ele>140.970459</ele>
        <time>2012-03-25T09:19:02Z</time>
      </trkpt>
      <trkpt lat="48.40299" lon="2.61388">
        <ele>135.2025146</ele>
        <time>2012-03-25T09:19:15Z</time>
      </trkpt>
      <trkpt lat="48.40269" lon="2.61367">
        <ele>132.3186035</ele>
        <time>2012-03-25T09:19:21Z</time>
      </trkpt>
      <trkpt lat="48.4025" lon="2.61364">
        <ele>130.3959961</ele>
        <time>2012-03-25T09:19:25Z</time>
      </trkpt>
      <trkpt lat="48.40227" lon="2.61375">
        <ele>130.3959961</ele>
        <time>2012-03-25T09:19:29Z</time>
      </trkpt>
      <trkpt lat="48.40189" lon="2.61381">
        <ele>129.4346924</ele>
        <time>2012-03-25T09:19:36Z</time>
      </trkpt>
      <trkpt lat="48.40147" lon="2.61382">
        <ele>129.9152832</ele>
        <time>2012-03-25T09:19:49Z</time>
      </trkpt>
      <trkpt lat="48.4012" lon="2.61388">
        <ele>130.3959961</ele>
        <time>2012-03-25T09:19:59Z</time>
      </trkpt>
      <trkpt lat="48.40105" lon="2.61395">
        <ele>131.3572998</ele>
        <time>2012-03-25T09:20:06Z</time>
      </trkpt>
      <trkpt lat="48.40078" lon="2.61411">
        <ele>131.3572998</ele>
        <time>2012-03-25T09:20:15Z</time>
      </trkpt>
      <trkpt lat="48.4007" lon="2.61424">
        <ele>130.3959961</ele>
        <time>2012-03-25T09:20:19Z</time>
      </trkpt>
      <trkpt lat="48.40053" lon="2.61428">
        <ele>128.4733887</ele>
        <time>2012-03-25T09:20:23Z</time>
      </trkpt>
      <trkpt lat="48.4003" lon="2.61429">
        <ele>125.5893555</ele>
        <time>2012-03-25T09:20:27Z</time>
      </trkpt>
      <trkpt lat="48.40007" lon="2.61438">
        <ele>127.0313721</ele>
        <time>2012-03-25T09:20:31Z</time>
      </trkpt>
      <trkpt lat="48.39955" lon="2.61436">
        <ele>130.3959961</ele>
        <time>2012-03-25T09:20:43Z</time>
      </trkpt>
      <trkpt lat="48.39924" lon="2.61431">
        <ele>131.3572998</ele>
        <time>2012-03-25T09:20:51Z</time>
      </trkpt>
      <trkpt lat="48.399" lon="2.61427">
        <ele>134.2412109</ele>
        <time>2012-03-25T09:20:57Z</time>
      </trkpt>
      <trkpt lat="48.39832" lon="2.61417">
        <ele>135.2025146</ele>
        <time>2012-03-25T09:21:13Z</time>
      </trkpt>
      <trkpt lat="48.39823" lon="2.61416">
        <ele>135.2025146</ele>
        <time>2012-03-25T09:21:15Z</time>
      </trkpt>
      <trkpt lat="48.39811" lon="2.61413">
        <ele>134.7219238</ele>
        <time>2012-03-25T09:21:18Z</time>
      </trkpt>
      <trkpt lat="48.39756" lon="2.61406">
        <ele>134.7219238</ele>
        <time>2012-03-25T09:21:31Z</time>
      </trkpt>
      <trkpt lat="48.39734" lon="2.61425">
        <ele>136.6446533</ele>
        <time>2012-03-25T09:21:38Z</time>
      </trkpt>
      <trkpt lat="48.39716" lon="2.6149">
        <ele>136.1639404</ele>
        <time>2012-03-25T09:21:48Z</time>
      </trkpt>
      <trkpt lat="48.397" lon="2.61555">
        <ele>136.6446533</ele>
        <time>2012-03-25T09:21:58Z</time>
      </trkpt>
      <trkpt lat="48.39693" lon="2.61594">
        <ele>136.6446533</ele>
        <time>2012-03-25T09:22:05Z</time>
      </trkpt>
      <trkpt lat="48.39675" lon="2.61657">
        <ele>137.605835</ele>
        <time>2012-03-25T09:22:15Z</time>
      </trkpt>
      <trkpt lat="48.39658" lon="2.61721">
        <ele>137.605835</ele>
        <time>2012-03-25T09:22:25Z</time>
      </trkpt>
      <trkpt lat="48.39654" lon="2.61733">
        <ele>137.1252441</ele>
        <time>2012-03-25T09:22:27Z</time>
      </trkpt>
      <trkpt lat="48.39652" lon="2.61751">
        <ele>136.6446533</ele>
        <time>2012-03-25T09:22:30Z</time>
      </trkpt>
      <trkpt lat="48.39646" lon="2.61772">
        <ele>135.6831055</ele>
        <time>2012-03-25T09:22:33Z</time>
      </trkpt>
      <trkpt lat="48.39634" lon="2.61813">
        <ele>136.6446533</ele>
        <time>2012-03-25T09:22:40Z</time>
      </trkpt>
      <trkpt lat="48.39654" lon="2.61842">
        <ele>136.6446533</ele>
        <time>2012-03-25T09:22:48Z</time>
      </trkpt>
      <trkpt lat="48.397" lon="2.6188">
        <ele>135.6831055</ele>
        <time>2012-03-25T09:23:00Z</time>
      </trkpt>
      <trkpt lat="48.39709" lon="2.61886">
        <ele>136.1639404</ele>
        <time>2012-03-25T09:23:02Z</time>
      </trkpt>
      <trkpt lat="48.39795" lon="2.61953">
        <ele>136.1639404</ele>
        <time>2012-03-25T09:23:22Z</time>
      </trkpt>
      <trkpt lat="48.39843" lon="2.61988">
        <ele>134.7219238</ele>
        <time>2012-03-25T09:23:32Z</time>
      </trkpt>
      <trkpt lat="48.3988" lon="2.62016">
        <ele>133.760498</ele>
        <time>2012-03-25T09:23:40Z</time>
      </trkpt>
      <trkpt lat="48.39909" lon="2.62042">
        <ele>133.2799072</ele>
        <time>2012-03-25T09:23:46Z</time>
      </trkpt>
      <trkpt lat="48.39967" lon="2.6209">
        <ele>134.7219238</ele>
        <time>2012-03-25T09:24:01Z</time>
      </trkpt>
      <trkpt lat="48.39979" lon="2.62099">
        <ele>134.2412109</ele>
        <time>2012-03-25T09:24:04Z</time>
      </trkpt>
      <trkpt lat="48.40009" lon="2.62126">
        <ele>133.760498</ele>
        <time>2012-03-25T09:24:12Z</time>
      </trkpt>
      <trkpt lat="48.40035" lon="2.62137">
        <ele>134.2412109</ele>
        <time>2012-03-25T09:24:19Z</time>
      </trkpt>
      <trkpt lat="48.40078" lon="2.62171">
        <ele>132.7993164</ele>
        <time>2012-03-25T09:24:29Z</time>
      </trkpt>
      <trkpt lat="48.40134" lon="2.62211">
        <ele>135.6831055</ele>
        <time>2012-03-25T09:24:44Z</time>
      </trkpt>
      <trkpt lat="48.40141" lon="2.62248">
        <ele>136.6446533</ele>
        <time>2012-03-25T09:24:53Z</time>
      </trkpt>
      <trkpt lat="48.40135" lon="2.62268">
        <ele>137.1252441</ele>
        <time>2012-03-25T09:24:57Z</time>
      </trkpt>
      <trkpt lat="48.40114" lon="2.62335">
        <ele>136.6446533</ele>
        <time>2012-03-25T09:25:08Z</time>
      </trkpt>
      <trkpt lat="48.40085" lon="2.62418">
        <ele>133.760498</ele>
        <time>2012-03-25T09:25:20Z</time>
      </trkpt>
      <trkpt lat="48.40053" lon="2.62508">
        <ele>133.760498</ele>
        <time>2012-03-25T09:25:32Z</time>
      </trkpt>
      <trkpt lat="48.4005" lon="2.62542">
        <ele>135.2025146</ele>
        <time>2012-03-25T09:25:37Z</time>
      </trkpt>
      <trkpt lat="48.40081" lon="2.62595">
        <ele>139.5284424</ele>
        <time>2012-03-25T09:25:50Z</time>
      </trkpt>
      <trkpt lat="48.40116" lon="2.6265">
        <ele>140.0091553</ele>
        <time>2012-03-25T09:26:04Z</time>
      </trkpt>
      <trkpt lat="48.40147" lon="2.627">
        <ele>140.0091553</ele>
        <time>2012-03-25T09:26:16Z</time>
      </trkpt>
      <trkpt lat="48.40175" lon="2.62748">
        <ele>142.8930664</ele>
        <time>2012-03-25T09:26:29Z</time>
      </trkpt>
      <trkpt lat="48.40206" lon="2.62789">
        <ele>147.2189941</ele>
        <time>2012-03-25T09:26:40Z</time>
      </trkpt>
      <trkpt lat="48.40237" lon="2.62833">
        <ele>147.2189941</ele>
        <time>2012-03-25T09:26:50Z</time>
      </trkpt>
      <trkpt lat="48.40262" lon="2.62874">
        <ele>148.1804199</ele>
        <time>2012-03-25T09:27:00Z</time>
      </trkpt>
      <trkpt lat="48.40274" lon="2.62881">
        <ele>144.3352051</ele>
        <time>2012-03-25T09:27:04Z</time>
      </trkpt>
      <trkpt lat="48.40306" lon="2.62899">
        <ele>139.0478516</ele>
        <time>2012-03-25T09:27:13Z</time>
      </trkpt>
      <trkpt lat="48.40354" lon="2.62939">
        <ele>137.605835</ele>
        <time>2012-03-25T09:27:26Z</time>
      </trkpt>
      <trkpt lat="48.40378" lon="2.62956">
        <ele>136.6446533</ele>
        <time>2012-03-25T09:27:32Z</time>
      </trkpt>
      <trkpt lat="48.40406" lon="2.62979">
        <ele>136.1639404</ele>
        <time>2012-03-25T09:27:39Z</time>
      </trkpt>
      <trkpt lat="48.40414" lon="2.62993">
        <ele>136.1639404</ele>
        <time>2012-03-25T09:27:42Z</time>
      </trkpt>
      <trkpt lat="48.40439" lon="2.63021">
        <ele>136.6446533</ele>
        <time>2012-03-25T09:27:48Z</time>
      </trkpt>
      <trkpt lat="48.40447" lon="2.63053">
        <ele>136.1639404</ele>
        <time>2012-03-25T09:27:53Z</time>
      </trkpt>
      <trkpt lat="48.40458" lon="2.63162">
        <ele>135.6831055</ele>
        <time>2012-03-25T09:28:07Z</time>
      </trkpt>
      <trkpt lat="48.40461" lon="2.63175">
        <ele>137.1252441</ele>
        <time>2012-03-25T09:28:09Z</time>
      </trkpt>
      <trkpt lat="48.40484" lon="2.63215">
        <ele>138.5672607</ele>
        <time>2012-03-25T09:28:17Z</time>
      </trkpt>
      <trkpt lat="48.40491" lon="2.63251">
        <ele>136.1639404</ele>
        <time>2012-03-25T09:28:22Z</time>
      </trkpt>
      <trkpt lat="48.40479" lon="2.63347">
        <ele>138.5672607</ele>
        <time>2012-03-25T09:28:36Z</time>
      </trkpt>
      <trkpt lat="48.40476" lon="2.63361">
        <ele>139.5284424</ele>
        <time>2012-03-25T09:28:38Z</time>
      </trkpt>
      <trkpt lat="48.40465" lon="2.63461">
        <ele>136.6446533</ele>
        <time>2012-03-25T09:28:54Z</time>
      </trkpt>
      <trkpt lat="48.40454" lon="2.63545">
        <ele>139.0478516</ele>
        <time>2012-03-25T09:29:08Z</time>
      </trkpt>
      <trkpt lat="48.40448" lon="2.63596">
        <ele>143.3736572</ele>
        <time>2012-03-25T09:29:17Z</time>
      </trkpt>
      <trkpt lat="48.4044" lon="2.63666">
        <ele>142.8930664</ele>
        <time>2012-03-25T09:29:29Z</time>
      </trkpt>
      <trkpt lat="48.40432" lon="2.63722">
        <ele>141.9317627</ele>
        <time>2012-03-25T09:29:38Z</time>
      </trkpt>
      <trkpt lat="48.4043" lon="2.63737">
        <ele>141.4510498</ele>
        <time>2012-03-25T09:29:41Z</time>
      </trkpt>
      <trkpt lat="48.40421" lon="2.63816">
        <ele>138.5672607</ele>
        <time>2012-03-25T09:29:56Z</time>
      </trkpt>
      <trkpt lat="48.40404" lon="2.63865">
        <ele>138.5672607</ele>
        <time>2012-03-25T09:30:07Z</time>
      </trkpt>
      <trkpt lat="48.40399" lon="2.63892">
        <ele>138.0865479</ele>
        <time>2012-03-25T09:30:18Z</time>
      </trkpt>
      <trkpt lat="48.40387" lon="2.63941">
        <ele>138.0865479</ele>
        <time>2012-03-25T09:30:28Z</time>
      </trkpt>
      <trkpt lat="48.40386" lon="2.63948">
        <ele>136.6446533</ele>
        <time>2012-03-25T09:30:29Z</time>
      </trkpt>
      <trkpt lat="48.40367" lon="2.6401">
        <ele>130.876709</ele>
        <time>2012-03-25T09:30:36Z</time>
      </trkpt>
      <trkpt lat="48.40345" lon="2.64144">
        <ele>124.6280518</ele>
        <time>2012-03-25T09:30:46Z</time>
      </trkpt>
      <trkpt lat="48.40325" lon="2.64269">
        <ele>123.1861572</ele>
        <time>2012-03-25T09:30:55Z</time>
      </trkpt>
      <trkpt lat="48.4032" lon="2.64306">
        <ele>122.7054443</ele>
        <time>2012-03-25T09:30:58Z</time>
      </trkpt>
      <trkpt lat="48.40315" lon="2.64359">
        <ele>122.7054443</ele>
        <time>2012-03-25T09:31:03Z</time>
      </trkpt>
      <trkpt lat="48.40303" lon="2.64444">
        <ele>119.8214111</ele>
        <time>2012-03-25T09:31:11Z</time>
      </trkpt>
      <trkpt lat="48.40285" lon="2.64532">
        <ele>122.2247314</ele>
        <time>2012-03-25T09:31:21Z</time>
      </trkpt>
      <trkpt lat="48.40275" lon="2.64625">
        <ele>129.9152832</ele>
        <time>2012-03-25T09:31:32Z</time>
      </trkpt>
      <trkpt lat="48.40262" lon="2.64707">
        <ele>131.8378906</ele>
        <time>2012-03-25T09:31:40Z</time>
      </trkpt>
      <trkpt lat="48.40259" lon="2.64733">
        <ele>133.2799072</ele>
        <time>2012-03-25T09:31:43Z</time>
      </trkpt>
      <trkpt lat="48.4025" lon="2.64805">
        <ele>127.0313721</ele>
        <time>2012-03-25T09:31:50Z</time>
      </trkpt>
      <trkpt lat="48.40248" lon="2.64815">
        <ele>127.0313721</ele>
        <time>2012-03-25T09:31:51Z</time>
      </trkpt>
      <trkpt lat="48.40232" lon="2.64927">
        <ele>114.0535889</ele>
        <time>2012-03-25T09:32:01Z</time>
      </trkpt>
      <trkpt lat="48.40231" lon="2.64937">
        <ele>113.0922852</ele>
        <time>2012-03-25T09:32:02Z</time>
      </trkpt>
      <trkpt lat="48.40222" lon="2.65032">
        <ele>112.6115723</ele>
        <time>2012-03-25T09:32:12Z</time>
      </trkpt>
      <trkpt lat="48.40218" lon="2.6507">
        <ele>110.6888428</ele>
        <time>2012-03-25T09:32:16Z</time>
      </trkpt>
      <trkpt lat="48.40208" lon="2.65156">
        <ele>110.6888428</ele>
        <time>2012-03-25T09:32:25Z</time>
      </trkpt>
      <trkpt lat="48.40185" lon="2.6527">
        <ele>111.1695557</ele>
        <time>2012-03-25T09:32:36Z</time>
      </trkpt>
      <trkpt lat="48.40184" lon="2.65279">
        <ele>111.6502686</ele>
        <time>2012-03-25T09:32:37Z</time>
      </trkpt>
      <trkpt lat="48.40164" lon="2.65394">
        <ele>109.7276611</ele>
        <time>2012-03-25T09:32:50Z</time>
      </trkpt>
      <trkpt lat="48.40158" lon="2.65459">
        <ele>103.4790039</ele>
        <time>2012-03-25T09:32:58Z</time>
      </trkpt>
      <trkpt lat="48.40158" lon="2.65474">
        <ele>101.5563965</ele>
        <time>2012-03-25T09:33:00Z</time>
      </trkpt>
      <trkpt lat="48.40157" lon="2.65509">
        <ele>101.0756836</ele>
        <time>2012-03-25T09:33:04Z</time>
      </trkpt>
      <trkpt lat="48.40155" lon="2.65535">
        <ele>99.6337891</ele>
        <time>2012-03-25T09:33:07Z</time>
      </trkpt>
      <trkpt lat="48.40154" lon="2.65569">
        <ele>98.6724854</ele>
        <time>2012-03-25T09:33:11Z</time>
      </trkpt>
      <trkpt lat="48.4015" lon="2.65594">
        <ele>98.1918945</ele>
        <time>2012-03-25T09:33:14Z</time>
      </trkpt>
      <trkpt lat="48.40149" lon="2.65616">
        <ele>98.6724854</ele>
        <time>2012-03-25T09:33:17Z</time>
      </trkpt>
      <trkpt lat="48.40143" lon="2.65655">
        <ele>98.1918945</ele>
        <time>2012-03-25T09:33:21Z</time>
      </trkpt>
      <trkpt lat="48.40136" lon="2.65697">
        <ele>99.1530762</ele>
        <time>2012-03-25T09:33:26Z</time>
      </trkpt>
      <trkpt lat="48.40131" lon="2.65756">
        <ele>102.5177002</ele>
        <time>2012-03-25T09:33:33Z</time>
      </trkpt>
      <trkpt lat="48.40126" lon="2.65815">
        <ele>102.5177002</ele>
        <time>2012-03-25T09:33:40Z</time>
      </trkpt>
      <trkpt lat="48.40125" lon="2.65867">
        <ele>102.998291</ele>
        <time>2012-03-25T09:33:45Z</time>
      </trkpt>
      <trkpt lat="48.40124" lon="2.6592">
        <ele>100.5950928</ele>
        <time>2012-03-25T09:33:50Z</time>
      </trkpt>
      <trkpt lat="48.40118" lon="2.65973">
        <ele>100.5950928</ele>
        <time>2012-03-25T09:33:56Z</time>
      </trkpt>
      <trkpt lat="48.40111" lon="2.65993">
        <ele>97.7111816</ele>
        <time>2012-03-25T09:33:58Z</time>
      </trkpt>
      <trkpt lat="48.40121" lon="2.6602">
        <ele>96.7498779</ele>
        <time>2012-03-25T09:34:03Z</time>
      </trkpt>
      <trkpt lat="48.4013" lon="2.66024">
        <ele>96.2692871</ele>
        <time>2012-03-25T09:34:05Z</time>
      </trkpt>
      <trkpt lat="48.40157" lon="2.66034">
        <ele>96.2692871</ele>
        <time>2012-03-25T09:34:12Z</time>
      </trkpt>
      <trkpt lat="48.4024" lon="2.66044">
        <ele>94.3465576</ele>
        <time>2012-03-25T09:34:28Z</time>
      </trkpt>
      <trkpt lat="48.40305" lon="2.66051">
        <ele>91.9432373</ele>
        <time>2012-03-25T09:34:43Z</time>
      </trkpt>
      <trkpt lat="48.40309" lon="2.66053">
        <ele>91.9432373</ele>
        <time>2012-03-25T09:34:44Z</time>
      </trkpt>
      <trkpt lat="48.40369" lon="2.66061">
        <ele>90.5013428</ele>
        <time>2012-03-25T09:34:59Z</time>
      </trkpt>
      <trkpt lat="48.4038" lon="2.66039">
        <ele>90.9819336</ele>
        <time>2012-03-25T09:35:04Z</time>
      </trkpt>
      <trkpt lat="48.40383" lon="2.65947">
        <ele>91.9432373</ele>
        <time>2012-03-25T09:35:20Z</time>
      </trkpt>
      <trkpt lat="48.40383" lon="2.65857">
        <ele>93.8658447</ele>
        <time>2012-03-25T09:35:37Z</time>
      </trkpt>
      <trkpt lat="48.40384" lon="2.65765">
        <ele>95.3077393</ele>
        <time>2012-03-25T09:35:55Z</time>
      </trkpt>
      <trkpt lat="48.4038" lon="2.6568">
        <ele>93.8658447</ele>
        <time>2012-03-25T09:36:09Z</time>
      </trkpt>
      <trkpt lat="48.40382" lon="2.65615">
        <ele>92.904541</ele>
        <time>2012-03-25T09:36:17Z</time>
      </trkpt>
      <trkpt lat="48.40385" lon="2.65547">
        <ele>90.9819336</ele>
        <time>2012-03-25T09:36:25Z</time>
      </trkpt>
      <trkpt lat="48.40389" lon="2.65512">
        <ele>91.9432373</ele>
        <time>2012-03-25T09:36:30Z</time>
      </trkpt>
      <trkpt lat="48.4039" lon="2.65483">
        <ele>91.9432373</ele>
        <time>2012-03-25T09:36:34Z</time>
      </trkpt>
      <trkpt lat="48.40401" lon="2.65385">
        <ele>93.8658447</ele>
        <time>2012-03-25T09:36:49Z</time>
      </trkpt>
      <trkpt lat="48.40409" lon="2.65316">
        <ele>95.3077393</ele>
        <time>2012-03-25T09:37:00Z</time>
      </trkpt>
      <trkpt lat="48.40417" lon="2.65252">
        <ele>96.7498779</ele>
        <time>2012-03-25T09:37:11Z</time>
      </trkpt>
      <trkpt lat="48.40421" lon="2.65192">
        <ele>98.1918945</ele>
        <time>2012-03-25T09:37:22Z</time>
      </trkpt>
      <trkpt lat="48.4043" lon="2.65125">
        <ele>100.5950928</ele>
        <time>2012-03-25T09:37:35Z</time>
      </trkpt>
      <trkpt lat="48.40435" lon="2.65093">
        <ele>102.0371094</ele>
        <time>2012-03-25T09:37:43Z</time>
      </trkpt>
      <trkpt lat="48.40451" lon="2.65056">
        <ele>102.5177002</ele>
        <time>2012-03-25T09:37:56Z</time>
      </trkpt>
      <trkpt lat="48.40464" lon="2.65031">
        <ele>103.9597168</ele>
        <time>2012-03-25T09:38:05Z</time>
      </trkpt>
      <trkpt lat="48.40484" lon="2.65002">
        <ele>104.4404297</ele>
        <time>2012-03-25T09:38:16Z</time>
      </trkpt>
      <trkpt lat="48.4051" lon="2.64975">
        <ele>103.4790039</ele>
        <time>2012-03-25T09:38:30Z</time>
      </trkpt>
      <trkpt lat="48.40534" lon="2.64962">
        <ele>104.9210205</ele>
        <time>2012-03-25T09:38:41Z</time>
      </trkpt>
      <trkpt lat="48.40553" lon="2.64952">
        <ele>106.3630371</ele>
        <time>2012-03-25T09:38:51Z</time>
      </trkpt>
      <trkpt lat="48.40571" lon="2.6495">
        <ele>108.7662354</ele>
        <time>2012-03-25T09:39:00Z</time>
      </trkpt>
      <trkpt lat="48.40575" lon="2.6495">
        <ele>109.2469482</ele>
        <time>2012-03-25T09:39:03Z</time>
      </trkpt>
      <trkpt lat="48.40602" lon="2.64949">
        <ele>109.2469482</ele>
        <time>2012-03-25T09:39:16Z</time>
      </trkpt>
      <trkpt lat="48.40617" lon="2.6495">
        <ele>109.2469482</ele>
        <time>2012-03-25T09:39:24Z</time>
      </trkpt>
      <trkpt lat="48.40632" lon="2.64951">
        <ele>110.208252</ele>
        <time>2012-03-25T09:39:31Z</time>
      </trkpt>
      <trkpt lat="48.40638" lon="2.64953">
        <ele>110.208252</ele>
        <time>2012-03-25T09:39:34Z</time>
      </trkpt>
      <trkpt lat="48.4065" lon="2.64946">
        <ele>110.208252</ele>
        <time>2012-03-25T09:39:41Z</time>
      </trkpt>
      <trkpt lat="48.40671" lon="2.64907">
        <ele>111.6502686</ele>
        <time>2012-03-25T09:39:56Z</time>
      </trkpt>
      <trkpt lat="48.4068" lon="2.64885">
        <ele>111.6502686</ele>
        <time>2012-03-25T09:40:05Z</time>
      </trkpt>
      <trkpt lat="48.40695" lon="2.64849">
        <ele>114.5341797</ele>
        <time>2012-03-25T09:40:18Z</time>
      </trkpt>
      <trkpt lat="48.40706" lon="2.64827">
        <ele>116.4567871</ele>
        <time>2012-03-25T09:40:28Z</time>
      </trkpt>
      <trkpt lat="48.40721" lon="2.64781">
        <ele>116.9375</ele>
        <time>2012-03-25T09:40:42Z</time>
      </trkpt>
      <trkpt lat="48.40727" lon="2.64742">
        <ele>118.8601074</ele>
        <time>2012-03-25T09:40:54Z</time>
      </trkpt>
      <trkpt lat="48.40732" lon="2.64719">
        <ele>117.4182129</ele>
        <time>2012-03-25T09:41:01Z</time>
      </trkpt>
      <trkpt lat="48.40735" lon="2.64678">
        <ele>119.3408203</ele>
        <time>2012-03-25T09:41:15Z</time>
      </trkpt>
      <trkpt lat="48.40741" lon="2.64626">
        <ele>121.2635498</ele>
        <time>2012-03-25T09:41:32Z</time>
      </trkpt>
      <trkpt lat="48.40747" lon="2.6458">
        <ele>124.6280518</ele>
        <time>2012-03-25T09:41:46Z</time>
      </trkpt>
      <trkpt lat="48.40755" lon="2.64526">
        <ele>126.5506592</ele>
        <time>2012-03-25T09:42:04Z</time>
      </trkpt>
      <trkpt lat="48.40759" lon="2.64487">
        <ele>127.0313721</ele>
        <time>2012-03-25T09:42:17Z</time>
      </trkpt>
      <trkpt lat="48.40765" lon="2.64438">
        <ele>130.876709</ele>
        <time>2012-03-25T09:42:33Z</time>
      </trkpt>
      <trkpt lat="48.40768" lon="2.64417">
        <ele>130.876709</ele>
        <time>2012-03-25T09:42:41Z</time>
      </trkpt>
      <trkpt lat="48.40775" lon="2.64387">
        <ele>136.6446533</ele>
        <time>2012-03-25T09:42:52Z</time>
      </trkpt>
      <trkpt lat="48.40785" lon="2.6434">
        <ele>138.0865479</ele>
        <time>2012-03-25T09:43:08Z</time>
      </trkpt>
      <trkpt lat="48.40791" lon="2.64307">
        <ele>137.1252441</ele>
        <time>2012-03-25T09:43:21Z</time>
      </trkpt>
      <trkpt lat="48.40795" lon="2.6429">
        <ele>138.0865479</ele>
        <time>2012-03-25T09:43:28Z</time>
      </trkpt>
      <trkpt lat="48.40801" lon="2.64291">
        <ele>137.605835</ele>
        <time>2012-03-25T09:43:33Z</time>
      </trkpt>
      <trkpt lat="48.40809" lon="2.64334">
        <ele>140.4898682</ele>
        <time>2012-03-25T09:43:46Z</time>
      </trkpt>
      <trkpt lat="48.40825" lon="2.64417">
        <ele>140.0091553</ele>
        <time>2012-03-25T09:44:05Z</time>
      </trkpt>
      <trkpt lat="48.40838" lon="2.64495">
        <ele>141.4510498</ele>
        <time>2012-03-25T09:44:22Z</time>
      </trkpt>
      <trkpt lat="48.40838" lon="2.645">
        <ele>141.9317627</ele>
        <time>2012-03-25T09:44:23Z</time>
      </trkpt>
      <trkpt lat="48.40847" lon="2.64548">
        <ele>141.4510498</ele>
        <time>2012-03-25T09:44:33Z</time>
      </trkpt>
      <trkpt lat="48.40858" lon="2.64604">
        <ele>139.5284424</ele>
        <time>2012-03-25T09:44:43Z</time>
      </trkpt>
      <trkpt lat="48.40861" lon="2.64623">
        <ele>139.5284424</ele>
        <time>2012-03-25T09:44:46Z</time>
      </trkpt>
      <trkpt lat="48.40866" lon="2.64653">
        <ele>138.5672607</ele>
        <time>2012-03-25T09:44:51Z</time>
      </trkpt>
      <trkpt lat="48.40878" lon="2.64713">
        <ele>140.970459</ele>
        <time>2012-03-25T09:45:02Z</time>
      </trkpt>
      <trkpt lat="48.40885" lon="2.64766">
        <ele>143.3736572</ele>
        <time>2012-03-25T09:45:12Z</time>
      </trkpt>
      <trkpt lat="48.40895" lon="2.64789">
        <ele>142.8930664</ele>
        <time>2012-03-25T09:45:16Z</time>
      </trkpt>
      <trkpt lat="48.40919" lon="2.64855">
        <ele>142.8930664</ele>
        <time>2012-03-25T09:45:28Z</time>
      </trkpt>
      <trkpt lat="48.4094" lon="2.64922">
        <ele>140.0091553</ele>
        <time>2012-03-25T09:45:40Z</time>
      </trkpt>
      <trkpt lat="48.40963" lon="2.64994">
        <ele>138.5672607</ele>
        <time>2012-03-25T09:45:54Z</time>
      </trkpt>
      <trkpt lat="48.40991" lon="2.65076">
        <ele>137.1252441</ele>
        <time>2012-03-25T09:46:10Z</time>
      </trkpt>
      <trkpt lat="48.41033" lon="2.65203">
        <ele>136.1639404</ele>
        <time>2012-03-25T09:46:33Z</time>
      </trkpt>
      <trkpt lat="48.41058" lon="2.65281">
        <ele>134.7219238</ele>
        <time>2012-03-25T09:46:47Z</time>
      </trkpt>
      <trkpt lat="48.41094" lon="2.65398">
        <ele>136.6446533</ele>
        <time>2012-03-25T09:47:08Z</time>
      </trkpt>
      <trkpt lat="48.41095" lon="2.65404">
        <ele>137.1252441</ele>
        <time>2012-03-25T09:47:09Z</time>
      </trkpt>
      <trkpt lat="48.41119" lon="2.65477">
        <ele>138.5672607</ele>
        <time>2012-03-25T09:47:22Z</time>
      </trkpt>
      <trkpt lat="48.41123" lon="2.65489">
        <ele>138.0865479</ele>
        <time>2012-03-25T09:47:24Z</time>
      </trkpt>
      <trkpt lat="48.41133" lon="2.6552">
        <ele>137.605835</ele>
        <time>2012-03-25T09:47:29Z</time>
      </trkpt>
      <trkpt lat="48.41143" lon="2.65584">
        <ele>136.6446533</ele>
        <time>2012-03-25T09:47:40Z</time>
      </trkpt>
      <trkpt lat="48.41133" lon="2.65595">
        <ele>136.6446533</ele>
        <time>2012-03-25T09:47:45Z</time>
      </trkpt>
      <trkpt lat="48.41078" lon="2.65567">
        <ele>134.7219238</ele>
        <time>2012-03-25T09:48:01Z</time>
      </trkpt>
      <trkpt lat="48.41001" lon="2.65537">
        <ele>131.8378906</ele>
        <time>2012-03-25T09:48:24Z</time>
      </trkpt>
      <trkpt lat="48.40984" lon="2.65525">
        <ele>132.7993164</ele>
        <time>2012-03-25T09:48:36Z</time>
      </trkpt>
      <trkpt lat="48.40983" lon="2.65527">
        <ele>132.3186035</ele>
        <time>2012-03-25T09:49:21Z</time>
      </trkpt>
      <trkpt lat="48.4098" lon="2.65528">
        <ele>132.3186035</ele>
        <time>2012-03-25T09:49:24Z</time>
      </trkpt>
      <trkpt lat="48.40942" lon="2.65515">
        <ele>132.7993164</ele>
        <time>2012-03-25T09:49:36Z</time>
      </trkpt>
      <trkpt lat="48.40902" lon="2.65499">
        <ele>134.7219238</ele>
        <time>2012-03-25T09:49:46Z</time>
      </trkpt>
      <trkpt lat="48.40842" lon="2.65474">
        <ele>136.1639404</ele>
        <time>2012-03-25T09:50:00Z</time>
      </trkpt>
      <trkpt lat="48.4083" lon="2.6547">
        <ele>137.1252441</ele>
        <time>2012-03-25T09:50:03Z</time>
      </trkpt>
      <trkpt lat="48.40818" lon="2.65485">
        <ele>139.0478516</ele>
        <time>2012-03-25T09:50:08Z</time>
      </trkpt>
      <trkpt lat="48.4082" lon="2.6553">
        <ele>139.5284424</ele>
        <time>2012-03-25T09:50:15Z</time>
      </trkpt>
      <trkpt lat="48.40827" lon="2.65621">
        <ele>138.5672607</ele>
        <time>2012-03-25T09:50:28Z</time>
      </trkpt>
      <trkpt lat="48.4083" lon="2.65667">
        <ele>141.9317627</ele>
        <time>2012-03-25T09:50:35Z</time>
      </trkpt>
      <trkpt lat="48.40838" lon="2.65723">
        <ele>138.0865479</ele>
        <time>2012-03-25T09:50:42Z</time>
      </trkpt>
      <trkpt lat="48.40841" lon="2.65753">
        <ele>138.0865479</ele>
        <time>2012-03-25T09:50:46Z</time>
      </trkpt>
      <trkpt lat="48.40844" lon="2.65768">
        <ele>137.605835</ele>
        <time>2012-03-25T09:50:48Z</time>
      </trkpt>
      <trkpt lat="48.40854" lon="2.65862">
        <ele>140.0091553</ele>
        <time>2012-03-25T09:51:02Z</time>
      </trkpt>
      <trkpt lat="48.40856" lon="2.65877">
        <ele>139.5284424</ele>
        <time>2012-03-25T09:51:04Z</time>
      </trkpt>
      <trkpt lat="48.40861" lon="2.65913">
        <ele>143.3736572</ele>
        <time>2012-03-25T09:51:09Z</time>
      </trkpt>
      <trkpt lat="48.40863" lon="2.65941">
        <ele>144.3352051</ele>
        <time>2012-03-25T09:51:13Z</time>
      </trkpt>
      <trkpt lat="48.40858" lon="2.65964">
        <ele>144.3352051</ele>
        <time>2012-03-25T09:51:17Z</time>
      </trkpt>
      <trkpt lat="48.40842" lon="2.6601">
        <ele>151.064209</ele>
        <time>2012-03-25T09:51:27Z</time>
      </trkpt>
      <trkpt lat="48.40821" lon="2.66063">
        <ele>146.2578125</ele>
        <time>2012-03-25T09:51:35Z</time>
      </trkpt>
      <trkpt lat="48.40813" lon="2.66085">
        <ele>145.2963867</ele>
        <time>2012-03-25T09:51:39Z</time>
      </trkpt>
      <trkpt lat="48.40775" lon="2.66179">
        <ele>139.0478516</ele>
        <time>2012-03-25T09:51:52Z</time>
      </trkpt>
      <trkpt lat="48.40757" lon="2.66217">
        <ele>134.2412109</ele>
        <time>2012-03-25T09:51:57Z</time>
      </trkpt>
      <trkpt lat="48.40738" lon="2.66263">
        <ele>127.0313721</ele>
        <time>2012-03-25T09:52:01Z</time>
      </trkpt>
      <trkpt lat="48.40725" lon="2.66294">
        <ele>124.6280518</ele>
        <time>2012-03-25T09:52:04Z</time>
      </trkpt>
      <trkpt lat="48.40707" lon="2.66324">
        <ele>120.302124</ele>
        <time>2012-03-25T09:52:07Z</time>
      </trkpt>
      <trkpt lat="48.40651" lon="2.66446">
        <ele>110.6888428</ele>
        <time>2012-03-25T09:52:17Z</time>
      </trkpt>
      <trkpt lat="48.40602" lon="2.66549">
        <ele>103.4790039</ele>
        <time>2012-03-25T09:52:27Z</time>
      </trkpt>
      <trkpt lat="48.4059" lon="2.66572">
        <ele>101.0756836</ele>
        <time>2012-03-25T09:52:29Z</time>
      </trkpt>
      <trkpt lat="48.40559" lon="2.66639">
        <ele>100.5950928</ele>
        <time>2012-03-25T09:52:36Z</time>
      </trkpt>
      <trkpt lat="48.40522" lon="2.66716">
        <ele>96.7498779</ele>
        <time>2012-03-25T09:52:44Z</time>
      </trkpt>
      <trkpt lat="48.40501" lon="2.66763">
        <ele>96.2692871</ele>
        <time>2012-03-25T09:52:48Z</time>
      </trkpt>
      <trkpt lat="48.40492" lon="2.6682">
        <ele>94.3465576</ele>
        <time>2012-03-25T09:52:53Z</time>
      </trkpt>
      <trkpt lat="48.40501" lon="2.66845">
        <ele>94.8271484</ele>
        <time>2012-03-25T09:52:56Z</time>
      </trkpt>
      <trkpt lat="48.40521" lon="2.66921">
        <ele>91.9432373</ele>
        <time>2012-03-25T09:53:06Z</time>
      </trkpt>
      <trkpt lat="48.40554" lon="2.67034">
        <ele>89.539917</ele>
        <time>2012-03-25T09:53:23Z</time>
      </trkpt>
      <trkpt lat="48.40563" lon="2.67059">
        <ele>90.5013428</ele>
        <time>2012-03-25T09:53:27Z</time>
      </trkpt>
      <trkpt lat="48.40591" lon="2.67152">
        <ele>89.0593262</ele>
        <time>2012-03-25T09:53:43Z</time>
      </trkpt>
      <trkpt lat="48.40592" lon="2.67163">
        <ele>89.0593262</ele>
        <time>2012-03-25T09:53:45Z</time>
      </trkpt>
      <trkpt lat="48.4059" lon="2.67194">
        <ele>88.5787354</ele>
        <time>2012-03-25T09:53:50Z</time>
      </trkpt>
      <trkpt lat="48.40583" lon="2.67265">
        <ele>85.6945801</ele>
        <time>2012-03-25T09:54:00Z</time>
      </trkpt>
      <trkpt lat="48.4057" lon="2.67421">
        <ele>85.2139893</ele>
        <time>2012-03-25T09:54:19Z</time>
      </trkpt>
      <trkpt lat="48.40559" lon="2.6756">
        <ele>83.7719727</ele>
        <time>2012-03-25T09:54:36Z</time>
      </trkpt>
      <trkpt lat="48.40555" lon="2.67608">
        <ele>83.7719727</ele>
        <time>2012-03-25T09:54:42Z</time>
      </trkpt>
      <trkpt lat="48.40547" lon="2.67683">
        <ele>85.2139893</ele>
        <time>2012-03-25T09:54:52Z</time>
      </trkpt>
      <trkpt lat="48.40544" lon="2.6771">
        <ele>85.2139893</ele>
        <time>2012-03-25T09:54:56Z</time>
      </trkpt>
      <trkpt lat="48.40534" lon="2.67787">
        <ele>84.7333984</ele>
        <time>2012-03-25T09:55:10Z</time>
      </trkpt>
      <trkpt lat="48.40531" lon="2.67804">
        <ele>84.2526855</ele>
        <time>2012-03-25T09:55:13Z</time>
      </trkpt>
      <trkpt lat="48.40514" lon="2.67911">
        <ele>83.2913818</ele>
        <time>2012-03-25T09:55:28Z</time>
      </trkpt>
      <trkpt lat="48.40493" lon="2.68071">
        <ele>83.2913818</ele>
        <time>2012-03-25T09:55:48Z</time>
      </trkpt>
      <trkpt lat="48.40482" lon="2.68144">
        <ele>82.810791</ele>
        <time>2012-03-25T09:55:56Z</time>
      </trkpt>
      <trkpt lat="48.40467" lon="2.68258">
        <ele>83.2913818</ele>
        <time>2012-03-25T09:56:10Z</time>
      </trkpt>
      <trkpt lat="48.40464" lon="2.68281">
        <ele>84.7333984</ele>
        <time>2012-03-25T09:56:14Z</time>
      </trkpt>
      <trkpt lat="48.40437" lon="2.6828">
        <ele>83.7719727</ele>
        <time>2012-03-25T09:56:23Z</time>
      </trkpt>
      <trkpt lat="48.40434" lon="2.6827">
        <ele>83.7719727</ele>
        <time>2012-03-25T09:56:25Z</time>
      </trkpt>
      <trkpt lat="48.40428" lon="2.68264">
        <ele>83.7719727</ele>
        <time>2012-03-25T09:56:32Z</time>
      </trkpt>
    </trkseg>
  </trk>
</gpx>